<?xml version="1.0" encoding="UTF-8" standalone="no" ?>
<gpx xmlns="http://www.topografix.com/GPX/1/1" xmlns:xsi="http://www.w3.org/2001/XMLSchema-instance" xsi:schemaLocation="http://www.topografix.com/GPX/1/1 http://www.topografix.com/GPX/1/1/gpx.xsd" version="1.1" creator="VisuGPX - https://www.visugpx.com">
  <metadata>
    <name>2021-04-27 L'Ungersberg depuis Reichsfeld avec Eric</name>
  </metadata>
  <trk>
    <name><![CDATA[2021-04-27 L'Ungersberg depuis Reichsfeld avec Eric]]></name>
    <extensions>
      <line xmlns="http://www.topografix.com/GPX/gpx_style/0/2">
        <color>0000FF</color>
        <opacity>0.59</opacity>
        <width>6.0</width>
      </line>
    </extensions>
    <trkseg>
      <trkpt lat="48.36746" lon="7.3834">
        <ele>342.3</ele>
        <time>2021-04-27T11:13:12.000Z</time>
      </trkpt>
      <trkpt lat="48.3674" lon="7.38352">
        <ele>341.2</ele>
        <time>2021-04-27T11:13:19.000Z</time>
      </trkpt>
      <trkpt lat="48.3673" lon="7.38355">
        <ele>340.2</ele>
        <time>2021-04-27T11:13:25.000Z</time>
      </trkpt>
      <trkpt lat="48.36723" lon="7.38346">
        <ele>340.1</ele>
        <time>2021-04-27T11:13:30.000Z</time>
      </trkpt>
      <trkpt lat="48.36722" lon="7.38332">
        <ele>340.7</ele>
        <time>2021-04-27T11:13:43.000Z</time>
      </trkpt>
      <trkpt lat="48.36721" lon="7.38318">
        <ele>340.6</ele>
        <time>2021-04-27T11:14:17.000Z</time>
      </trkpt>
      <trkpt lat="48.36712" lon="7.38315">
        <ele>340</ele>
        <time>2021-04-27T11:14:26.000Z</time>
      </trkpt>
      <trkpt lat="48.36703" lon="7.38314">
        <ele>339.3</ele>
        <time>2021-04-27T11:14:40.000Z</time>
      </trkpt>
      <trkpt lat="48.36693" lon="7.3831">
        <ele>338.8</ele>
        <time>2021-04-27T11:14:46.000Z</time>
      </trkpt>
      <trkpt lat="48.36681" lon="7.38304">
        <ele>338.2</ele>
        <time>2021-04-27T11:14:51.000Z</time>
      </trkpt>
      <trkpt lat="48.36673" lon="7.38297">
        <ele>338.1</ele>
        <time>2021-04-27T11:15:01.000Z</time>
      </trkpt>
      <trkpt lat="48.3667" lon="7.38284">
        <ele>338.5</ele>
        <time>2021-04-27T11:15:09.000Z</time>
      </trkpt>
      <trkpt lat="48.36668" lon="7.38269">
        <ele>339.1</ele>
        <time>2021-04-27T11:15:16.000Z</time>
      </trkpt>
      <trkpt lat="48.36665" lon="7.38256">
        <ele>340.3</ele>
        <time>2021-04-27T11:15:23.000Z</time>
      </trkpt>
      <trkpt lat="48.36668" lon="7.38242">
        <ele>340.8</ele>
        <time>2021-04-27T11:15:33.000Z</time>
      </trkpt>
      <trkpt lat="48.36671" lon="7.3823">
        <ele>342.1</ele>
        <time>2021-04-27T11:15:40.000Z</time>
      </trkpt>
      <trkpt lat="48.36676" lon="7.38217">
        <ele>343.3</ele>
        <time>2021-04-27T11:15:48.000Z</time>
      </trkpt>
      <trkpt lat="48.36679" lon="7.38204">
        <ele>344.5</ele>
        <time>2021-04-27T11:15:56.000Z</time>
      </trkpt>
      <trkpt lat="48.36685" lon="7.38191">
        <ele>345.3</ele>
        <time>2021-04-27T11:16:03.000Z</time>
      </trkpt>
      <trkpt lat="48.3668" lon="7.38179">
        <ele>346.7</ele>
        <time>2021-04-27T11:16:12.000Z</time>
      </trkpt>
      <trkpt lat="48.36678" lon="7.38164">
        <ele>348.4</ele>
        <time>2021-04-27T11:16:21.000Z</time>
      </trkpt>
      <trkpt lat="48.36681" lon="7.3815">
        <ele>350.1</ele>
        <time>2021-04-27T11:16:29.000Z</time>
      </trkpt>
      <trkpt lat="48.36678" lon="7.38137">
        <ele>352.1</ele>
        <time>2021-04-27T11:16:39.000Z</time>
      </trkpt>
      <trkpt lat="48.36675" lon="7.38124">
        <ele>354.2</ele>
        <time>2021-04-27T11:16:49.000Z</time>
      </trkpt>
      <trkpt lat="48.36673" lon="7.3811">
        <ele>356.2</ele>
        <time>2021-04-27T11:16:59.000Z</time>
      </trkpt>
      <trkpt lat="48.36669" lon="7.38096">
        <ele>358.3</ele>
        <time>2021-04-27T11:17:08.000Z</time>
      </trkpt>
      <trkpt lat="48.36669" lon="7.38082">
        <ele>360.1</ele>
        <time>2021-04-27T11:17:17.000Z</time>
      </trkpt>
      <trkpt lat="48.36668" lon="7.38068">
        <ele>362.3</ele>
        <time>2021-04-27T11:17:30.000Z</time>
      </trkpt>
      <trkpt lat="48.36671" lon="7.38081">
        <ele>360.3</ele>
        <time>2021-04-27T11:18:31.000Z</time>
      </trkpt>
      <trkpt lat="48.36672" lon="7.38094">
        <ele>358.4</ele>
        <time>2021-04-27T11:18:40.000Z</time>
      </trkpt>
      <trkpt lat="48.36673" lon="7.38109">
        <ele>356.4</ele>
        <time>2021-04-27T11:18:48.000Z</time>
      </trkpt>
      <trkpt lat="48.36673" lon="7.38124">
        <ele>354.2</ele>
        <time>2021-04-27T11:18:54.000Z</time>
      </trkpt>
      <trkpt lat="48.36676" lon="7.38138">
        <ele>352.1</ele>
        <time>2021-04-27T11:19:00.000Z</time>
      </trkpt>
      <trkpt lat="48.36678" lon="7.38153">
        <ele>349.9</ele>
        <time>2021-04-27T11:19:09.000Z</time>
      </trkpt>
      <trkpt lat="48.36677" lon="7.38167">
        <ele>348.1</ele>
        <time>2021-04-27T11:19:17.000Z</time>
      </trkpt>
      <trkpt lat="48.36679" lon="7.38182">
        <ele>346.6</ele>
        <time>2021-04-27T11:19:24.000Z</time>
      </trkpt>
      <trkpt lat="48.36686" lon="7.38191">
        <ele>345.3</ele>
        <time>2021-04-27T11:19:37.000Z</time>
      </trkpt>
      <trkpt lat="48.36696" lon="7.38185">
        <ele>345.2</ele>
        <time>2021-04-27T11:19:44.000Z</time>
      </trkpt>
      <trkpt lat="48.36701" lon="7.38174">
        <ele>345.6</ele>
        <time>2021-04-27T11:19:59.000Z</time>
      </trkpt>
      <trkpt lat="48.36706" lon="7.38161">
        <ele>346.5</ele>
        <time>2021-04-27T11:20:08.000Z</time>
      </trkpt>
      <trkpt lat="48.36713" lon="7.38152">
        <ele>347.5</ele>
        <time>2021-04-27T11:20:14.000Z</time>
      </trkpt>
      <trkpt lat="48.36718" lon="7.38141">
        <ele>348.9</ele>
        <time>2021-04-27T11:20:21.000Z</time>
      </trkpt>
      <trkpt lat="48.36722" lon="7.38128">
        <ele>350.7</ele>
        <time>2021-04-27T11:20:30.000Z</time>
      </trkpt>
      <trkpt lat="48.36729" lon="7.38119">
        <ele>351.8</ele>
        <time>2021-04-27T11:20:39.000Z</time>
      </trkpt>
      <trkpt lat="48.36736" lon="7.38108">
        <ele>353.3</ele>
        <time>2021-04-27T11:20:49.000Z</time>
      </trkpt>
      <trkpt lat="48.36744" lon="7.38102">
        <ele>353.9</ele>
        <time>2021-04-27T11:20:58.000Z</time>
      </trkpt>
      <trkpt lat="48.36752" lon="7.38091">
        <ele>355.6</ele>
        <time>2021-04-27T11:21:06.000Z</time>
      </trkpt>
      <trkpt lat="48.36757" lon="7.3808">
        <ele>357.7</ele>
        <time>2021-04-27T11:21:16.000Z</time>
      </trkpt>
      <trkpt lat="48.36763" lon="7.38069">
        <ele>360.4</ele>
        <time>2021-04-27T11:21:30.000Z</time>
      </trkpt>
      <trkpt lat="48.36768" lon="7.38057">
        <ele>363</ele>
        <time>2021-04-27T11:21:41.000Z</time>
      </trkpt>
      <trkpt lat="48.36774" lon="7.38046">
        <ele>365.4</ele>
        <time>2021-04-27T11:21:54.000Z</time>
      </trkpt>
      <trkpt lat="48.36781" lon="7.38035">
        <ele>367.4</ele>
        <time>2021-04-27T11:22:06.000Z</time>
      </trkpt>
      <trkpt lat="48.36787" lon="7.38024">
        <ele>369.5</ele>
        <time>2021-04-27T11:22:17.000Z</time>
      </trkpt>
      <trkpt lat="48.36794" lon="7.38015">
        <ele>371</ele>
        <time>2021-04-27T11:22:32.000Z</time>
      </trkpt>
      <trkpt lat="48.36801" lon="7.38006">
        <ele>372.5</ele>
        <time>2021-04-27T11:22:47.000Z</time>
      </trkpt>
      <trkpt lat="48.36806" lon="7.37994">
        <ele>375</ele>
        <time>2021-04-27T11:23:02.000Z</time>
      </trkpt>
      <trkpt lat="48.36811" lon="7.37982">
        <ele>377.4</ele>
        <time>2021-04-27T11:23:17.000Z</time>
      </trkpt>
      <trkpt lat="48.36823" lon="7.37963">
        <ele>381.7</ele>
        <time>2021-04-27T11:23:36.000Z</time>
      </trkpt>
      <trkpt lat="48.36828" lon="7.37952">
        <ele>384.6</ele>
        <time>2021-04-27T11:23:46.000Z</time>
      </trkpt>
      <trkpt lat="48.36833" lon="7.37936">
        <ele>388.8</ele>
        <time>2021-04-27T11:24:05.000Z</time>
      </trkpt>
      <trkpt lat="48.36836" lon="7.37922">
        <ele>392</ele>
        <time>2021-04-27T11:24:21.000Z</time>
      </trkpt>
      <trkpt lat="48.3684" lon="7.37909">
        <ele>394.5</ele>
        <time>2021-04-27T11:24:32.000Z</time>
      </trkpt>
      <trkpt lat="48.36843" lon="7.37895">
        <ele>397.3</ele>
        <time>2021-04-27T11:24:43.000Z</time>
      </trkpt>
      <trkpt lat="48.36847" lon="7.37882">
        <ele>400.1</ele>
        <time>2021-04-27T11:24:53.000Z</time>
      </trkpt>
      <trkpt lat="48.36853" lon="7.37871">
        <ele>401.7</ele>
        <time>2021-04-27T11:25:00.000Z</time>
      </trkpt>
      <trkpt lat="48.36859" lon="7.3786">
        <ele>403.6</ele>
        <time>2021-04-27T11:25:10.000Z</time>
      </trkpt>
      <trkpt lat="48.36866" lon="7.37848">
        <ele>405.5</ele>
        <time>2021-04-27T11:25:21.000Z</time>
      </trkpt>
      <trkpt lat="48.36872" lon="7.37837">
        <ele>407.5</ele>
        <time>2021-04-27T11:25:39.000Z</time>
      </trkpt>
      <trkpt lat="48.36878" lon="7.37826">
        <ele>409.1</ele>
        <time>2021-04-27T11:25:52.000Z</time>
      </trkpt>
      <trkpt lat="48.36883" lon="7.37813">
        <ele>410.8</ele>
        <time>2021-04-27T11:26:06.000Z</time>
      </trkpt>
      <trkpt lat="48.36889" lon="7.37801">
        <ele>412.2</ele>
        <time>2021-04-27T11:26:15.000Z</time>
      </trkpt>
      <trkpt lat="48.36894" lon="7.37789">
        <ele>414</ele>
        <time>2021-04-27T11:26:26.000Z</time>
      </trkpt>
      <trkpt lat="48.369" lon="7.37777">
        <ele>415.5</ele>
        <time>2021-04-27T11:26:37.000Z</time>
      </trkpt>
      <trkpt lat="48.36903" lon="7.37764">
        <ele>417.9</ele>
        <time>2021-04-27T11:26:50.000Z</time>
      </trkpt>
      <trkpt lat="48.36907" lon="7.37752">
        <ele>419.8</ele>
        <time>2021-04-27T11:27:00.000Z</time>
      </trkpt>
      <trkpt lat="48.36913" lon="7.3774">
        <ele>421.3</ele>
        <time>2021-04-27T11:27:12.000Z</time>
      </trkpt>
      <trkpt lat="48.36915" lon="7.37727">
        <ele>423.3</ele>
        <time>2021-04-27T11:27:27.000Z</time>
      </trkpt>
      <trkpt lat="48.3692" lon="7.37716">
        <ele>424.6</ele>
        <time>2021-04-27T11:27:37.000Z</time>
      </trkpt>
      <trkpt lat="48.36924" lon="7.37703">
        <ele>426</ele>
        <time>2021-04-27T11:27:47.000Z</time>
      </trkpt>
      <trkpt lat="48.36931" lon="7.37691">
        <ele>427</ele>
        <time>2021-04-27T11:27:57.000Z</time>
      </trkpt>
      <trkpt lat="48.36937" lon="7.37678">
        <ele>428.2</ele>
        <time>2021-04-27T11:28:07.000Z</time>
      </trkpt>
      <trkpt lat="48.36944" lon="7.37668">
        <ele>428.6</ele>
        <time>2021-04-27T11:28:14.000Z</time>
      </trkpt>
      <trkpt lat="48.3695" lon="7.37657">
        <ele>429.5</ele>
        <time>2021-04-27T11:28:27.000Z</time>
      </trkpt>
      <trkpt lat="48.36958" lon="7.37648">
        <ele>429.9</ele>
        <time>2021-04-27T11:28:36.000Z</time>
      </trkpt>
      <trkpt lat="48.36964" lon="7.37636">
        <ele>431.1</ele>
        <time>2021-04-27T11:28:45.000Z</time>
      </trkpt>
      <trkpt lat="48.3697" lon="7.37624">
        <ele>432.3</ele>
        <time>2021-04-27T11:28:56.000Z</time>
      </trkpt>
      <trkpt lat="48.36975" lon="7.37611">
        <ele>434.1</ele>
        <time>2021-04-27T11:29:05.000Z</time>
      </trkpt>
      <trkpt lat="48.36981" lon="7.376">
        <ele>434.9</ele>
        <time>2021-04-27T11:29:15.000Z</time>
      </trkpt>
      <trkpt lat="48.36989" lon="7.37592">
        <ele>435.2</ele>
        <time>2021-04-27T11:29:23.000Z</time>
      </trkpt>
      <trkpt lat="48.36997" lon="7.37584">
        <ele>435.6</ele>
        <time>2021-04-27T11:29:30.000Z</time>
      </trkpt>
      <trkpt lat="48.37003" lon="7.37573">
        <ele>436.6</ele>
        <time>2021-04-27T11:29:40.000Z</time>
      </trkpt>
      <trkpt lat="48.37007" lon="7.37561">
        <ele>438.3</ele>
        <time>2021-04-27T11:29:50.000Z</time>
      </trkpt>
      <trkpt lat="48.37011" lon="7.37549">
        <ele>439.9</ele>
        <time>2021-04-27T11:29:59.000Z</time>
      </trkpt>
      <trkpt lat="48.37016" lon="7.37536">
        <ele>441.6</ele>
        <time>2021-04-27T11:30:10.000Z</time>
      </trkpt>
      <trkpt lat="48.37021" lon="7.37524">
        <ele>442.9</ele>
        <time>2021-04-27T11:30:17.000Z</time>
      </trkpt>
      <trkpt lat="48.37028" lon="7.37513">
        <ele>443.3</ele>
        <time>2021-04-27T11:30:24.000Z</time>
      </trkpt>
      <trkpt lat="48.37033" lon="7.37501">
        <ele>444.5</ele>
        <time>2021-04-27T11:30:34.000Z</time>
      </trkpt>
      <trkpt lat="48.37029" lon="7.37488">
        <ele>446.3</ele>
        <time>2021-04-27T11:30:48.000Z</time>
      </trkpt>
      <trkpt lat="48.37023" lon="7.37478">
        <ele>448.5</ele>
        <time>2021-04-27T11:31:04.000Z</time>
      </trkpt>
      <trkpt lat="48.37016" lon="7.37469">
        <ele>450.9</ele>
        <time>2021-04-27T11:31:18.000Z</time>
      </trkpt>
      <trkpt lat="48.37006" lon="7.37466">
        <ele>453.4</ele>
        <time>2021-04-27T11:31:38.000Z</time>
      </trkpt>
      <trkpt lat="48.36999" lon="7.37457">
        <ele>455.8</ele>
        <time>2021-04-27T11:31:52.000Z</time>
      </trkpt>
      <trkpt lat="48.36991" lon="7.37449">
        <ele>457.7</ele>
        <time>2021-04-27T11:32:03.000Z</time>
      </trkpt>
      <trkpt lat="48.36987" lon="7.37435">
        <ele>459.5</ele>
        <time>2021-04-27T11:32:23.000Z</time>
      </trkpt>
      <trkpt lat="48.36978" lon="7.37436">
        <ele>460.9</ele>
        <time>2021-04-27T11:32:35.000Z</time>
      </trkpt>
      <trkpt lat="48.36971" lon="7.37426">
        <ele>462.9</ele>
        <time>2021-04-27T11:32:50.000Z</time>
      </trkpt>
      <trkpt lat="48.36969" lon="7.37412">
        <ele>464.7</ele>
        <time>2021-04-27T11:33:01.000Z</time>
      </trkpt>
      <trkpt lat="48.36969" lon="7.37398">
        <ele>466.1</ele>
        <time>2021-04-27T11:33:11.000Z</time>
      </trkpt>
      <trkpt lat="48.36969" lon="7.37383">
        <ele>467.7</ele>
        <time>2021-04-27T11:33:26.000Z</time>
      </trkpt>
      <trkpt lat="48.36969" lon="7.37368">
        <ele>469</ele>
        <time>2021-04-27T11:33:38.000Z</time>
      </trkpt>
      <trkpt lat="48.36964" lon="7.37356">
        <ele>471.3</ele>
        <time>2021-04-27T11:33:52.000Z</time>
      </trkpt>
      <trkpt lat="48.36954" lon="7.37351">
        <ele>474</ele>
        <time>2021-04-27T11:34:03.000Z</time>
      </trkpt>
      <trkpt lat="48.36948" lon="7.3734">
        <ele>476.6</ele>
        <time>2021-04-27T11:34:13.000Z</time>
      </trkpt>
      <trkpt lat="48.36939" lon="7.37334">
        <ele>479.6</ele>
        <time>2021-04-27T11:34:26.000Z</time>
      </trkpt>
      <trkpt lat="48.36931" lon="7.37322">
        <ele>482.6</ele>
        <time>2021-04-27T11:35:02.000Z</time>
      </trkpt>
      <trkpt lat="48.36924" lon="7.37331">
        <ele>483.5</ele>
        <time>2021-04-27T11:35:12.000Z</time>
      </trkpt>
      <trkpt lat="48.36916" lon="7.37338">
        <ele>484.4</ele>
        <time>2021-04-27T11:35:19.000Z</time>
      </trkpt>
      <trkpt lat="48.36909" lon="7.37347">
        <ele>484</ele>
        <time>2021-04-27T11:35:27.000Z</time>
      </trkpt>
      <trkpt lat="48.369" lon="7.3735">
        <ele>484.6</ele>
        <time>2021-04-27T11:35:37.000Z</time>
      </trkpt>
      <trkpt lat="48.36891" lon="7.37357">
        <ele>484.8</ele>
        <time>2021-04-27T11:35:47.000Z</time>
      </trkpt>
      <trkpt lat="48.36883" lon="7.37363">
        <ele>484.8</ele>
        <time>2021-04-27T11:35:57.000Z</time>
      </trkpt>
      <trkpt lat="48.36873" lon="7.37366">
        <ele>485.6</ele>
        <time>2021-04-27T11:36:06.000Z</time>
      </trkpt>
      <trkpt lat="48.36864" lon="7.37368">
        <ele>486.4</ele>
        <time>2021-04-27T11:36:13.000Z</time>
      </trkpt>
      <trkpt lat="48.36855" lon="7.37375">
        <ele>486.5</ele>
        <time>2021-04-27T11:36:23.000Z</time>
      </trkpt>
      <trkpt lat="48.36847" lon="7.37382">
        <ele>486.3</ele>
        <time>2021-04-27T11:36:33.000Z</time>
      </trkpt>
      <trkpt lat="48.36839" lon="7.3739">
        <ele>486.3</ele>
        <time>2021-04-27T11:36:46.000Z</time>
      </trkpt>
      <trkpt lat="48.3683" lon="7.3739">
        <ele>487</ele>
        <time>2021-04-27T11:36:54.000Z</time>
      </trkpt>
      <trkpt lat="48.36821" lon="7.37397">
        <ele>486.3</ele>
        <time>2021-04-27T11:37:03.000Z</time>
      </trkpt>
      <trkpt lat="48.36811" lon="7.37398">
        <ele>486.4</ele>
        <time>2021-04-27T11:37:11.000Z</time>
      </trkpt>
      <trkpt lat="48.36802" lon="7.37396">
        <ele>486.9</ele>
        <time>2021-04-27T11:37:19.000Z</time>
      </trkpt>
      <trkpt lat="48.36792" lon="7.37399">
        <ele>486.6</ele>
        <time>2021-04-27T11:37:28.000Z</time>
      </trkpt>
      <trkpt lat="48.36783" lon="7.37401">
        <ele>486.6</ele>
        <time>2021-04-27T11:37:37.000Z</time>
      </trkpt>
      <trkpt lat="48.36777" lon="7.3739">
        <ele>488.8</ele>
        <time>2021-04-27T11:37:54.000Z</time>
      </trkpt>
      <trkpt lat="48.36769" lon="7.37383">
        <ele>490.6</ele>
        <time>2021-04-27T11:38:01.000Z</time>
      </trkpt>
      <trkpt lat="48.36763" lon="7.37372">
        <ele>493</ele>
        <time>2021-04-27T11:38:12.000Z</time>
      </trkpt>
      <trkpt lat="48.36762" lon="7.37358">
        <ele>495.9</ele>
        <time>2021-04-27T11:38:22.000Z</time>
      </trkpt>
      <trkpt lat="48.36762" lon="7.37344">
        <ele>498.8</ele>
        <time>2021-04-27T11:38:31.000Z</time>
      </trkpt>
      <trkpt lat="48.3676" lon="7.3733">
        <ele>501.7</ele>
        <time>2021-04-27T11:38:42.000Z</time>
      </trkpt>
      <trkpt lat="48.36755" lon="7.37316">
        <ele>504.6</ele>
        <time>2021-04-27T11:38:57.000Z</time>
      </trkpt>
      <trkpt lat="48.36749" lon="7.37306">
        <ele>507</ele>
        <time>2021-04-27T11:39:11.000Z</time>
      </trkpt>
      <trkpt lat="48.36746" lon="7.37292">
        <ele>509.3</ele>
        <time>2021-04-27T11:39:32.000Z</time>
      </trkpt>
      <trkpt lat="48.36739" lon="7.37284">
        <ele>510.6</ele>
        <time>2021-04-27T11:39:44.000Z</time>
      </trkpt>
      <trkpt lat="48.36729" lon="7.37286">
        <ele>509.9</ele>
        <time>2021-04-27T11:39:51.000Z</time>
      </trkpt>
      <trkpt lat="48.3672" lon="7.3729">
        <ele>509</ele>
        <time>2021-04-27T11:39:57.000Z</time>
      </trkpt>
      <trkpt lat="48.36711" lon="7.37283">
        <ele>510</ele>
        <time>2021-04-27T11:40:07.000Z</time>
      </trkpt>
      <trkpt lat="48.36703" lon="7.37276">
        <ele>510.9</ele>
        <time>2021-04-27T11:40:19.000Z</time>
      </trkpt>
      <trkpt lat="48.36695" lon="7.37269">
        <ele>512.2</ele>
        <time>2021-04-27T11:40:30.000Z</time>
      </trkpt>
      <trkpt lat="48.36689" lon="7.37258">
        <ele>514</ele>
        <time>2021-04-27T11:40:40.000Z</time>
      </trkpt>
      <trkpt lat="48.36682" lon="7.37249">
        <ele>515.6</ele>
        <time>2021-04-27T11:40:54.000Z</time>
      </trkpt>
      <trkpt lat="48.36673" lon="7.37242">
        <ele>516.3</ele>
        <time>2021-04-27T11:41:02.000Z</time>
      </trkpt>
      <trkpt lat="48.36663" lon="7.37238">
        <ele>516.7</ele>
        <time>2021-04-27T11:41:16.000Z</time>
      </trkpt>
      <trkpt lat="48.36657" lon="7.37229">
        <ele>517.9</ele>
        <time>2021-04-27T11:41:31.000Z</time>
      </trkpt>
      <trkpt lat="48.3665" lon="7.3722">
        <ele>519.2</ele>
        <time>2021-04-27T11:41:45.000Z</time>
      </trkpt>
      <trkpt lat="48.36642" lon="7.37212">
        <ele>520.3</ele>
        <time>2021-04-27T11:41:54.000Z</time>
      </trkpt>
      <trkpt lat="48.36636" lon="7.37201">
        <ele>522</ele>
        <time>2021-04-27T11:42:04.000Z</time>
      </trkpt>
      <trkpt lat="48.36631" lon="7.37189">
        <ele>523.9</ele>
        <time>2021-04-27T11:42:14.000Z</time>
      </trkpt>
      <trkpt lat="48.36629" lon="7.37175">
        <ele>526.1</ele>
        <time>2021-04-27T11:42:27.000Z</time>
      </trkpt>
      <trkpt lat="48.36628" lon="7.3716">
        <ele>528.4</ele>
        <time>2021-04-27T11:42:36.000Z</time>
      </trkpt>
      <trkpt lat="48.36628" lon="7.37145">
        <ele>530.4</ele>
        <time>2021-04-27T11:42:44.000Z</time>
      </trkpt>
      <trkpt lat="48.3663" lon="7.3713">
        <ele>532.3</ele>
        <time>2021-04-27T11:42:54.000Z</time>
      </trkpt>
      <trkpt lat="48.36633" lon="7.37117">
        <ele>534.2</ele>
        <time>2021-04-27T11:43:22.000Z</time>
      </trkpt>
      <trkpt lat="48.36641" lon="7.37111">
        <ele>535.2</ele>
        <time>2021-04-27T11:43:35.000Z</time>
      </trkpt>
      <trkpt lat="48.36636" lon="7.37099">
        <ele>536.7</ele>
        <time>2021-04-27T11:43:52.000Z</time>
      </trkpt>
      <trkpt lat="48.36632" lon="7.37086">
        <ele>538.3</ele>
        <time>2021-04-27T11:44:02.000Z</time>
      </trkpt>
      <trkpt lat="48.36626" lon="7.37075">
        <ele>540.3</ele>
        <time>2021-04-27T11:44:17.000Z</time>
      </trkpt>
      <trkpt lat="48.36621" lon="7.37063">
        <ele>542.7</ele>
        <time>2021-04-27T11:44:26.000Z</time>
      </trkpt>
      <trkpt lat="48.36619" lon="7.37049">
        <ele>545.4</ele>
        <time>2021-04-27T11:44:38.000Z</time>
      </trkpt>
      <trkpt lat="48.36616" lon="7.37036">
        <ele>548</ele>
        <time>2021-04-27T11:44:50.000Z</time>
      </trkpt>
      <trkpt lat="48.36607" lon="7.3703">
        <ele>548.6</ele>
        <time>2021-04-27T11:46:17.000Z</time>
      </trkpt>
      <trkpt lat="48.36599" lon="7.37025">
        <ele>549.2</ele>
        <time>2021-04-27T11:47:46.000Z</time>
      </trkpt>
      <trkpt lat="48.3659" lon="7.3703">
        <ele>547.6</ele>
        <time>2021-04-27T11:47:55.000Z</time>
      </trkpt>
      <trkpt lat="48.36584" lon="7.37041">
        <ele>545.1</ele>
        <time>2021-04-27T11:48:01.000Z</time>
      </trkpt>
      <trkpt lat="48.36577" lon="7.37053">
        <ele>544.7</ele>
        <time>2021-04-27T11:48:10.000Z</time>
      </trkpt>
      <trkpt lat="48.36569" lon="7.3706">
        <ele>545.6</ele>
        <time>2021-04-27T11:48:17.000Z</time>
      </trkpt>
      <trkpt lat="48.36561" lon="7.37068">
        <ele>546.2</ele>
        <time>2021-04-27T11:48:26.000Z</time>
      </trkpt>
      <trkpt lat="48.36551" lon="7.37071">
        <ele>548.5</ele>
        <time>2021-04-27T11:48:32.000Z</time>
      </trkpt>
      <trkpt lat="48.36544" lon="7.37079">
        <ele>549</ele>
        <time>2021-04-27T11:48:42.000Z</time>
      </trkpt>
      <trkpt lat="48.36536" lon="7.37087">
        <ele>550.3</ele>
        <time>2021-04-27T11:48:49.000Z</time>
      </trkpt>
      <trkpt lat="48.36526" lon="7.37093">
        <ele>552</ele>
        <time>2021-04-27T11:48:55.000Z</time>
      </trkpt>
      <trkpt lat="48.36518" lon="7.37099">
        <ele>553.4</ele>
        <time>2021-04-27T11:49:03.000Z</time>
      </trkpt>
      <trkpt lat="48.36509" lon="7.37104">
        <ele>555.2</ele>
        <time>2021-04-27T11:49:11.000Z</time>
      </trkpt>
      <trkpt lat="48.36501" lon="7.37114">
        <ele>555.9</ele>
        <time>2021-04-27T11:49:19.000Z</time>
      </trkpt>
      <trkpt lat="48.36495" lon="7.37124">
        <ele>556.5</ele>
        <time>2021-04-27T11:49:26.000Z</time>
      </trkpt>
      <trkpt lat="48.36488" lon="7.37134">
        <ele>557.3</ele>
        <time>2021-04-27T11:49:34.000Z</time>
      </trkpt>
      <trkpt lat="48.36483" lon="7.37146">
        <ele>557.2</ele>
        <time>2021-04-27T11:49:42.000Z</time>
      </trkpt>
      <trkpt lat="48.36477" lon="7.37157">
        <ele>557.3</ele>
        <time>2021-04-27T11:49:50.000Z</time>
      </trkpt>
      <trkpt lat="48.36472" lon="7.37168">
        <ele>557.6</ele>
        <time>2021-04-27T11:49:59.000Z</time>
      </trkpt>
      <trkpt lat="48.36467" lon="7.3718">
        <ele>557.8</ele>
        <time>2021-04-27T11:50:07.000Z</time>
      </trkpt>
      <trkpt lat="48.36459" lon="7.37189">
        <ele>559.1</ele>
        <time>2021-04-27T11:50:15.000Z</time>
      </trkpt>
      <trkpt lat="48.36455" lon="7.37201">
        <ele>559.3</ele>
        <time>2021-04-27T11:50:25.000Z</time>
      </trkpt>
      <trkpt lat="48.3645" lon="7.37214">
        <ele>559.3</ele>
        <time>2021-04-27T11:50:34.000Z</time>
      </trkpt>
      <trkpt lat="48.36446" lon="7.37226">
        <ele>559.6</ele>
        <time>2021-04-27T11:50:43.000Z</time>
      </trkpt>
      <trkpt lat="48.36442" lon="7.37239">
        <ele>559.6</ele>
        <time>2021-04-27T11:50:51.000Z</time>
      </trkpt>
      <trkpt lat="48.36438" lon="7.37251">
        <ele>560.1</ele>
        <time>2021-04-27T11:51:00.000Z</time>
      </trkpt>
      <trkpt lat="48.36433" lon="7.37263">
        <ele>560.6</ele>
        <time>2021-04-27T11:51:09.000Z</time>
      </trkpt>
      <trkpt lat="48.36427" lon="7.37275">
        <ele>561.7</ele>
        <time>2021-04-27T11:51:17.000Z</time>
      </trkpt>
      <trkpt lat="48.36425" lon="7.3729">
        <ele>560.9</ele>
        <time>2021-04-27T11:51:34.000Z</time>
      </trkpt>
      <trkpt lat="48.36422" lon="7.37303">
        <ele>560.5</ele>
        <time>2021-04-27T11:51:41.000Z</time>
      </trkpt>
      <trkpt lat="48.36418" lon="7.37316">
        <ele>560.7</ele>
        <time>2021-04-27T11:51:51.000Z</time>
      </trkpt>
      <trkpt lat="48.36414" lon="7.37329">
        <ele>559.5</ele>
        <time>2021-04-27T11:52:05.000Z</time>
      </trkpt>
      <trkpt lat="48.36409" lon="7.3734">
        <ele>558.2</ele>
        <time>2021-04-27T11:52:14.000Z</time>
      </trkpt>
      <trkpt lat="48.36402" lon="7.37349">
        <ele>557.1</ele>
        <time>2021-04-27T11:52:24.000Z</time>
      </trkpt>
      <trkpt lat="48.36395" lon="7.37358">
        <ele>556</ele>
        <time>2021-04-27T11:52:32.000Z</time>
      </trkpt>
      <trkpt lat="48.36385" lon="7.37363">
        <ele>555.3</ele>
        <time>2021-04-27T11:52:42.000Z</time>
      </trkpt>
      <trkpt lat="48.36376" lon="7.37359">
        <ele>555.6</ele>
        <time>2021-04-27T11:52:52.000Z</time>
      </trkpt>
      <trkpt lat="48.36367" lon="7.37353">
        <ele>556.1</ele>
        <time>2021-04-27T11:53:02.000Z</time>
      </trkpt>
      <trkpt lat="48.36365" lon="7.3734">
        <ele>557.6</ele>
        <time>2021-04-27T11:53:18.000Z</time>
      </trkpt>
      <trkpt lat="48.36368" lon="7.37326">
        <ele>559.4</ele>
        <time>2021-04-27T11:53:31.000Z</time>
      </trkpt>
      <trkpt lat="48.36371" lon="7.37312">
        <ele>561.1</ele>
        <time>2021-04-27T11:53:46.000Z</time>
      </trkpt>
      <trkpt lat="48.3637" lon="7.37299">
        <ele>562.8</ele>
        <time>2021-04-27T11:53:58.000Z</time>
      </trkpt>
      <trkpt lat="48.36369" lon="7.37285">
        <ele>564.5</ele>
        <time>2021-04-27T11:54:11.000Z</time>
      </trkpt>
      <trkpt lat="48.36366" lon="7.37272">
        <ele>566.2</ele>
        <time>2021-04-27T11:54:25.000Z</time>
      </trkpt>
      <trkpt lat="48.36365" lon="7.37259">
        <ele>567.9</ele>
        <time>2021-04-27T11:54:37.000Z</time>
      </trkpt>
      <trkpt lat="48.36366" lon="7.37244">
        <ele>569.5</ele>
        <time>2021-04-27T11:54:49.000Z</time>
      </trkpt>
      <trkpt lat="48.36367" lon="7.3723">
        <ele>570.6</ele>
        <time>2021-04-27T11:55:03.000Z</time>
      </trkpt>
      <trkpt lat="48.36366" lon="7.37215">
        <ele>571.8</ele>
        <time>2021-04-27T11:55:15.000Z</time>
      </trkpt>
      <trkpt lat="48.36366" lon="7.37201">
        <ele>573</ele>
        <time>2021-04-27T11:55:28.000Z</time>
      </trkpt>
      <trkpt lat="48.36366" lon="7.37186">
        <ele>574.2</ele>
        <time>2021-04-27T11:55:39.000Z</time>
      </trkpt>
      <trkpt lat="48.36368" lon="7.37171">
        <ele>575.5</ele>
        <time>2021-04-27T11:55:47.000Z</time>
      </trkpt>
      <trkpt lat="48.36368" lon="7.37157">
        <ele>576.7</ele>
        <time>2021-04-27T11:55:55.000Z</time>
      </trkpt>
      <trkpt lat="48.36368" lon="7.37142">
        <ele>577.9</ele>
        <time>2021-04-27T11:56:05.000Z</time>
      </trkpt>
      <trkpt lat="48.36367" lon="7.37128">
        <ele>579</ele>
        <time>2021-04-27T11:56:13.000Z</time>
      </trkpt>
      <trkpt lat="48.36367" lon="7.37114">
        <ele>580.2</ele>
        <time>2021-04-27T11:56:23.000Z</time>
      </trkpt>
      <trkpt lat="48.36361" lon="7.37102">
        <ele>580.8</ele>
        <time>2021-04-27T11:56:33.000Z</time>
      </trkpt>
      <trkpt lat="48.36357" lon="7.37089">
        <ele>581.6</ele>
        <time>2021-04-27T11:56:43.000Z</time>
      </trkpt>
      <trkpt lat="48.36357" lon="7.37075">
        <ele>583.4</ele>
        <time>2021-04-27T11:56:53.000Z</time>
      </trkpt>
      <trkpt lat="48.36353" lon="7.3706">
        <ele>585.7</ele>
        <time>2021-04-27T11:57:03.000Z</time>
      </trkpt>
      <trkpt lat="48.36349" lon="7.37047">
        <ele>587.7</ele>
        <time>2021-04-27T11:57:12.000Z</time>
      </trkpt>
      <trkpt lat="48.36344" lon="7.37036">
        <ele>589.6</ele>
        <time>2021-04-27T11:57:20.000Z</time>
      </trkpt>
      <trkpt lat="48.36338" lon="7.37025">
        <ele>591.4</ele>
        <time>2021-04-27T11:57:28.000Z</time>
      </trkpt>
      <trkpt lat="48.3633" lon="7.37014">
        <ele>592.9</ele>
        <time>2021-04-27T11:57:36.000Z</time>
      </trkpt>
      <trkpt lat="48.36323" lon="7.37003">
        <ele>593.7</ele>
        <time>2021-04-27T11:57:43.000Z</time>
      </trkpt>
      <trkpt lat="48.36317" lon="7.36992">
        <ele>594.6</ele>
        <time>2021-04-27T11:57:53.000Z</time>
      </trkpt>
      <trkpt lat="48.36312" lon="7.3698">
        <ele>596</ele>
        <time>2021-04-27T11:58:04.000Z</time>
      </trkpt>
      <trkpt lat="48.36305" lon="7.36968">
        <ele>597.3</ele>
        <time>2021-04-27T11:58:15.000Z</time>
      </trkpt>
      <trkpt lat="48.36299" lon="7.36958">
        <ele>598.4</ele>
        <time>2021-04-27T11:58:23.000Z</time>
      </trkpt>
      <trkpt lat="48.36292" lon="7.36949">
        <ele>599</ele>
        <time>2021-04-27T11:58:30.000Z</time>
      </trkpt>
      <trkpt lat="48.36285" lon="7.36939">
        <ele>599.8</ele>
        <time>2021-04-27T11:58:38.000Z</time>
      </trkpt>
      <trkpt lat="48.36279" lon="7.36929">
        <ele>600.9</ele>
        <time>2021-04-27T11:58:49.000Z</time>
      </trkpt>
      <trkpt lat="48.36272" lon="7.36917">
        <ele>602.3</ele>
        <time>2021-04-27T11:58:59.000Z</time>
      </trkpt>
      <trkpt lat="48.36267" lon="7.36906">
        <ele>604.4</ele>
        <time>2021-04-27T11:59:07.000Z</time>
      </trkpt>
      <trkpt lat="48.36263" lon="7.36894">
        <ele>606.8</ele>
        <time>2021-04-27T11:59:14.000Z</time>
      </trkpt>
      <trkpt lat="48.36258" lon="7.36881">
        <ele>609.2</ele>
        <time>2021-04-27T11:59:22.000Z</time>
      </trkpt>
      <trkpt lat="48.3625" lon="7.36872">
        <ele>610.4</ele>
        <time>2021-04-27T11:59:30.000Z</time>
      </trkpt>
      <trkpt lat="48.36244" lon="7.3686">
        <ele>611.9</ele>
        <time>2021-04-27T11:59:41.000Z</time>
      </trkpt>
      <trkpt lat="48.36242" lon="7.36847">
        <ele>614.4</ele>
        <time>2021-04-27T11:59:55.000Z</time>
      </trkpt>
      <trkpt lat="48.36236" lon="7.36836">
        <ele>615.6</ele>
        <time>2021-04-27T12:00:07.000Z</time>
      </trkpt>
      <trkpt lat="48.36232" lon="7.36823">
        <ele>617.9</ele>
        <time>2021-04-27T12:00:19.000Z</time>
      </trkpt>
      <trkpt lat="48.36227" lon="7.36811">
        <ele>619.6</ele>
        <time>2021-04-27T12:00:28.000Z</time>
      </trkpt>
      <trkpt lat="48.36222" lon="7.368">
        <ele>620.8</ele>
        <time>2021-04-27T12:00:37.000Z</time>
      </trkpt>
      <trkpt lat="48.36219" lon="7.36787">
        <ele>623.2</ele>
        <time>2021-04-27T12:00:54.000Z</time>
      </trkpt>
      <trkpt lat="48.36216" lon="7.36773">
        <ele>626</ele>
        <time>2021-04-27T12:01:11.000Z</time>
      </trkpt>
      <trkpt lat="48.36211" lon="7.36761">
        <ele>627.1</ele>
        <time>2021-04-27T12:01:23.000Z</time>
      </trkpt>
      <trkpt lat="48.36205" lon="7.3675">
        <ele>627.9</ele>
        <time>2021-04-27T12:01:39.000Z</time>
      </trkpt>
      <trkpt lat="48.36201" lon="7.36738">
        <ele>629.3</ele>
        <time>2021-04-27T12:01:50.000Z</time>
      </trkpt>
      <trkpt lat="48.36197" lon="7.36719">
        <ele>632.2</ele>
        <time>2021-04-27T12:02:09.000Z</time>
      </trkpt>
      <trkpt lat="48.36192" lon="7.36707">
        <ele>633.6</ele>
        <time>2021-04-27T12:02:21.000Z</time>
      </trkpt>
      <trkpt lat="48.36184" lon="7.36701">
        <ele>632.4</ele>
        <time>2021-04-27T12:02:30.000Z</time>
      </trkpt>
      <trkpt lat="48.36178" lon="7.3669">
        <ele>633</ele>
        <time>2021-04-27T12:02:38.000Z</time>
      </trkpt>
      <trkpt lat="48.36171" lon="7.36682">
        <ele>632.5</ele>
        <time>2021-04-27T12:02:52.000Z</time>
      </trkpt>
      <trkpt lat="48.36162" lon="7.36677">
        <ele>632.3</ele>
        <time>2021-04-27T12:03:00.000Z</time>
      </trkpt>
      <trkpt lat="48.36153" lon="7.36671">
        <ele>633.4</ele>
        <time>2021-04-27T12:03:08.000Z</time>
      </trkpt>
      <trkpt lat="48.36143" lon="7.3667">
        <ele>633.3</ele>
        <time>2021-04-27T12:03:14.000Z</time>
      </trkpt>
      <trkpt lat="48.36134" lon="7.3667">
        <ele>633</ele>
        <time>2021-04-27T12:03:22.000Z</time>
      </trkpt>
      <trkpt lat="48.36124" lon="7.36669">
        <ele>632.8</ele>
        <time>2021-04-27T12:03:30.000Z</time>
      </trkpt>
      <trkpt lat="48.36115" lon="7.36665">
        <ele>633.6</ele>
        <time>2021-04-27T12:03:35.000Z</time>
      </trkpt>
      <trkpt lat="48.36106" lon="7.36661">
        <ele>634.3</ele>
        <time>2021-04-27T12:03:43.000Z</time>
      </trkpt>
      <trkpt lat="48.36097" lon="7.36664">
        <ele>633.1</ele>
        <time>2021-04-27T12:03:52.000Z</time>
      </trkpt>
      <trkpt lat="48.36087" lon="7.36665">
        <ele>632.6</ele>
        <time>2021-04-27T12:03:57.000Z</time>
      </trkpt>
      <trkpt lat="48.36078" lon="7.36665">
        <ele>633.7</ele>
        <time>2021-04-27T12:04:08.000Z</time>
      </trkpt>
      <trkpt lat="48.36069" lon="7.36671">
        <ele>634</ele>
        <time>2021-04-27T12:04:20.000Z</time>
      </trkpt>
      <trkpt lat="48.36061" lon="7.36677">
        <ele>634.2</ele>
        <time>2021-04-27T12:04:27.000Z</time>
      </trkpt>
      <trkpt lat="48.36054" lon="7.36686">
        <ele>633.2</ele>
        <time>2021-04-27T12:04:40.000Z</time>
      </trkpt>
      <trkpt lat="48.36046" lon="7.36695">
        <ele>632.1</ele>
        <time>2021-04-27T12:04:50.000Z</time>
      </trkpt>
      <trkpt lat="48.36038" lon="7.36699">
        <ele>632.8</ele>
        <time>2021-04-27T12:05:02.000Z</time>
      </trkpt>
      <trkpt lat="48.36029" lon="7.36702">
        <ele>633.5</ele>
        <time>2021-04-27T12:05:09.000Z</time>
      </trkpt>
      <trkpt lat="48.3602" lon="7.36711">
        <ele>632.9</ele>
        <time>2021-04-27T12:05:14.000Z</time>
      </trkpt>
      <trkpt lat="48.36011" lon="7.36717">
        <ele>633</ele>
        <time>2021-04-27T12:05:19.000Z</time>
      </trkpt>
      <trkpt lat="48.36002" lon="7.36721">
        <ele>633.4</ele>
        <time>2021-04-27T12:05:25.000Z</time>
      </trkpt>
      <trkpt lat="48.35996" lon="7.36733">
        <ele>631.2</ele>
        <time>2021-04-27T12:05:34.000Z</time>
      </trkpt>
      <trkpt lat="48.35989" lon="7.36745">
        <ele>630.1</ele>
        <time>2021-04-27T12:05:47.000Z</time>
      </trkpt>
      <trkpt lat="48.35983" lon="7.36755">
        <ele>629.8</ele>
        <time>2021-04-27T12:05:58.000Z</time>
      </trkpt>
      <trkpt lat="48.35975" lon="7.36763">
        <ele>630.7</ele>
        <time>2021-04-27T12:06:07.000Z</time>
      </trkpt>
      <trkpt lat="48.35968" lon="7.36772">
        <ele>631.2</ele>
        <time>2021-04-27T12:06:15.000Z</time>
      </trkpt>
      <trkpt lat="48.35959" lon="7.36778">
        <ele>632.5</ele>
        <time>2021-04-27T12:06:22.000Z</time>
      </trkpt>
      <trkpt lat="48.35952" lon="7.36792">
        <ele>631.6</ele>
        <time>2021-04-27T12:06:34.000Z</time>
      </trkpt>
      <trkpt lat="48.35947" lon="7.36804">
        <ele>630.4</ele>
        <time>2021-04-27T12:06:43.000Z</time>
      </trkpt>
      <trkpt lat="48.35939" lon="7.3681">
        <ele>631.2</ele>
        <time>2021-04-27T12:06:50.000Z</time>
      </trkpt>
      <trkpt lat="48.3593" lon="7.36816">
        <ele>632.2</ele>
        <time>2021-04-27T12:07:00.000Z</time>
      </trkpt>
      <trkpt lat="48.35922" lon="7.36828">
        <ele>631.3</ele>
        <time>2021-04-27T12:07:09.000Z</time>
      </trkpt>
      <trkpt lat="48.35912" lon="7.36834">
        <ele>632.5</ele>
        <time>2021-04-27T12:07:16.000Z</time>
      </trkpt>
      <trkpt lat="48.35902" lon="7.36838">
        <ele>635.3</ele>
        <time>2021-04-27T12:07:22.000Z</time>
      </trkpt>
      <trkpt lat="48.35893" lon="7.36842">
        <ele>637.4</ele>
        <time>2021-04-27T12:07:27.000Z</time>
      </trkpt>
      <trkpt lat="48.35883" lon="7.36847">
        <ele>639.6</ele>
        <time>2021-04-27T12:07:33.000Z</time>
      </trkpt>
      <trkpt lat="48.35876" lon="7.36857">
        <ele>639.7</ele>
        <time>2021-04-27T12:07:43.000Z</time>
      </trkpt>
      <trkpt lat="48.35871" lon="7.36868">
        <ele>639.2</ele>
        <time>2021-04-27T12:07:58.000Z</time>
      </trkpt>
      <trkpt lat="48.35865" lon="7.36878">
        <ele>638.6</ele>
        <time>2021-04-27T12:08:08.000Z</time>
      </trkpt>
      <trkpt lat="48.35857" lon="7.36887">
        <ele>639.3</ele>
        <time>2021-04-27T12:08:18.000Z</time>
      </trkpt>
      <trkpt lat="48.3585" lon="7.36894">
        <ele>639.9</ele>
        <time>2021-04-27T12:08:27.000Z</time>
      </trkpt>
      <trkpt lat="48.35842" lon="7.36904">
        <ele>640.1</ele>
        <time>2021-04-27T12:08:33.000Z</time>
      </trkpt>
      <trkpt lat="48.35836" lon="7.36914">
        <ele>639.9</ele>
        <time>2021-04-27T12:08:41.000Z</time>
      </trkpt>
      <trkpt lat="48.35829" lon="7.36923">
        <ele>639.7</ele>
        <time>2021-04-27T12:08:51.000Z</time>
      </trkpt>
      <trkpt lat="48.35821" lon="7.36929">
        <ele>640.8</ele>
        <time>2021-04-27T12:09:01.000Z</time>
      </trkpt>
      <trkpt lat="48.35813" lon="7.36938">
        <ele>640.6</ele>
        <time>2021-04-27T12:09:08.000Z</time>
      </trkpt>
      <trkpt lat="48.35807" lon="7.3695">
        <ele>639.3</ele>
        <time>2021-04-27T12:09:14.000Z</time>
      </trkpt>
      <trkpt lat="48.35801" lon="7.36962">
        <ele>637.9</ele>
        <time>2021-04-27T12:09:19.000Z</time>
      </trkpt>
      <trkpt lat="48.35793" lon="7.36972">
        <ele>637.4</ele>
        <time>2021-04-27T12:09:26.000Z</time>
      </trkpt>
      <trkpt lat="48.35784" lon="7.36977">
        <ele>638.4</ele>
        <time>2021-04-27T12:09:33.000Z</time>
      </trkpt>
      <trkpt lat="48.35776" lon="7.36986">
        <ele>638.1</ele>
        <time>2021-04-27T12:09:42.000Z</time>
      </trkpt>
      <trkpt lat="48.35769" lon="7.36997">
        <ele>636.6</ele>
        <time>2021-04-27T12:09:48.000Z</time>
      </trkpt>
      <trkpt lat="48.3576" lon="7.37003">
        <ele>636.8</ele>
        <time>2021-04-27T12:09:58.000Z</time>
      </trkpt>
      <trkpt lat="48.35753" lon="7.37012">
        <ele>635.2</ele>
        <time>2021-04-27T12:10:07.000Z</time>
      </trkpt>
      <trkpt lat="48.35744" lon="7.37019">
        <ele>634.1</ele>
        <time>2021-04-27T12:10:15.000Z</time>
      </trkpt>
      <trkpt lat="48.35735" lon="7.37018">
        <ele>634.6</ele>
        <time>2021-04-27T12:10:23.000Z</time>
      </trkpt>
      <trkpt lat="48.35724" lon="7.37023">
        <ele>633.6</ele>
        <time>2021-04-27T12:10:32.000Z</time>
      </trkpt>
      <trkpt lat="48.35714" lon="7.37024">
        <ele>633.7</ele>
        <time>2021-04-27T12:10:38.000Z</time>
      </trkpt>
      <trkpt lat="48.35704" lon="7.37029">
        <ele>632.3</ele>
        <time>2021-04-27T12:10:48.000Z</time>
      </trkpt>
      <trkpt lat="48.35696" lon="7.37034">
        <ele>630.7</ele>
        <time>2021-04-27T12:10:58.000Z</time>
      </trkpt>
      <trkpt lat="48.35686" lon="7.37035">
        <ele>630.9</ele>
        <time>2021-04-27T12:11:05.000Z</time>
      </trkpt>
      <trkpt lat="48.35676" lon="7.37034">
        <ele>631.4</ele>
        <time>2021-04-27T12:11:12.000Z</time>
      </trkpt>
      <trkpt lat="48.35667" lon="7.37031">
        <ele>633</ele>
        <time>2021-04-27T12:11:20.000Z</time>
      </trkpt>
      <trkpt lat="48.35661" lon="7.37019">
        <ele>635.8</ele>
        <time>2021-04-27T12:11:52.000Z</time>
      </trkpt>
      <trkpt lat="48.35653" lon="7.3701">
        <ele>636.6</ele>
        <time>2021-04-27T12:12:01.000Z</time>
      </trkpt>
      <trkpt lat="48.35647" lon="7.36999">
        <ele>637.9</ele>
        <time>2021-04-27T12:12:10.000Z</time>
      </trkpt>
      <trkpt lat="48.35646" lon="7.36986">
        <ele>641</ele>
        <time>2021-04-27T12:12:26.000Z</time>
      </trkpt>
      <trkpt lat="48.35641" lon="7.36973">
        <ele>642.4</ele>
        <time>2021-04-27T12:12:39.000Z</time>
      </trkpt>
      <trkpt lat="48.35633" lon="7.36954">
        <ele>644.5</ele>
        <time>2021-04-27T12:12:59.000Z</time>
      </trkpt>
      <trkpt lat="48.35631" lon="7.36941">
        <ele>647.2</ele>
        <time>2021-04-27T12:13:13.000Z</time>
      </trkpt>
      <trkpt lat="48.35627" lon="7.36918">
        <ele>652.1</ele>
        <time>2021-04-27T12:13:34.000Z</time>
      </trkpt>
      <trkpt lat="48.35622" lon="7.36903">
        <ele>652.7</ele>
        <time>2021-04-27T12:13:42.000Z</time>
      </trkpt>
      <trkpt lat="48.35616" lon="7.36892">
        <ele>652.7</ele>
        <time>2021-04-27T12:13:49.000Z</time>
      </trkpt>
      <trkpt lat="48.35612" lon="7.36879">
        <ele>653.5</ele>
        <time>2021-04-27T12:14:00.000Z</time>
      </trkpt>
      <trkpt lat="48.35608" lon="7.36866">
        <ele>654.7</ele>
        <time>2021-04-27T12:14:11.000Z</time>
      </trkpt>
      <trkpt lat="48.35611" lon="7.36852">
        <ele>658.2</ele>
        <time>2021-04-27T12:14:25.000Z</time>
      </trkpt>
      <trkpt lat="48.3562" lon="7.36851">
        <ele>661.8</ele>
        <time>2021-04-27T12:14:41.000Z</time>
      </trkpt>
      <trkpt lat="48.3563" lon="7.36848">
        <ele>666</ele>
        <time>2021-04-27T12:14:48.000Z</time>
      </trkpt>
      <trkpt lat="48.35639" lon="7.3685">
        <ele>668.9</ele>
        <time>2021-04-27T12:14:57.000Z</time>
      </trkpt>
      <trkpt lat="48.35641" lon="7.36836">
        <ele>672.3</ele>
        <time>2021-04-27T12:15:22.000Z</time>
      </trkpt>
      <trkpt lat="48.35637" lon="7.36824">
        <ele>673.5</ele>
        <time>2021-04-27T12:15:31.000Z</time>
      </trkpt>
      <trkpt lat="48.35635" lon="7.36811">
        <ele>675.3</ele>
        <time>2021-04-27T12:15:41.000Z</time>
      </trkpt>
      <trkpt lat="48.35643" lon="7.36806">
        <ele>679.6</ele>
        <time>2021-04-27T12:15:52.000Z</time>
      </trkpt>
      <trkpt lat="48.35653" lon="7.36807">
        <ele>682.8</ele>
        <time>2021-04-27T12:16:02.000Z</time>
      </trkpt>
      <trkpt lat="48.35662" lon="7.36811">
        <ele>685.3</ele>
        <time>2021-04-27T12:16:16.000Z</time>
      </trkpt>
      <trkpt lat="48.35656" lon="7.368">
        <ele>685.6</ele>
        <time>2021-04-27T12:16:55.000Z</time>
      </trkpt>
      <trkpt lat="48.3565" lon="7.36789">
        <ele>686</ele>
        <time>2021-04-27T12:17:06.000Z</time>
      </trkpt>
      <trkpt lat="48.35649" lon="7.36775">
        <ele>688.8</ele>
        <time>2021-04-27T12:17:25.000Z</time>
      </trkpt>
      <trkpt lat="48.35644" lon="7.36763">
        <ele>689.5</ele>
        <time>2021-04-27T12:17:33.000Z</time>
      </trkpt>
      <trkpt lat="48.35644" lon="7.36749">
        <ele>692.3</ele>
        <time>2021-04-27T12:17:47.000Z</time>
      </trkpt>
      <trkpt lat="48.3564" lon="7.36735">
        <ele>693.2</ele>
        <time>2021-04-27T12:18:01.000Z</time>
      </trkpt>
      <trkpt lat="48.35646" lon="7.36724">
        <ele>697.6</ele>
        <time>2021-04-27T12:18:18.000Z</time>
      </trkpt>
      <trkpt lat="48.35655" lon="7.36721">
        <ele>701.8</ele>
        <time>2021-04-27T12:18:31.000Z</time>
      </trkpt>
      <trkpt lat="48.35664" lon="7.36723">
        <ele>704.9</ele>
        <time>2021-04-27T12:18:44.000Z</time>
      </trkpt>
      <trkpt lat="48.35671" lon="7.36714">
        <ele>707.5</ele>
        <time>2021-04-27T12:19:05.000Z</time>
      </trkpt>
      <trkpt lat="48.35677" lon="7.367">
        <ele>710.1</ele>
        <time>2021-04-27T12:19:32.000Z</time>
      </trkpt>
      <trkpt lat="48.3567" lon="7.3669">
        <ele>711.8</ele>
        <time>2021-04-27T12:19:53.000Z</time>
      </trkpt>
      <trkpt lat="48.35662" lon="7.36683">
        <ele>711.1</ele>
        <time>2021-04-27T12:20:09.000Z</time>
      </trkpt>
      <trkpt lat="48.35657" lon="7.3667">
        <ele>711.6</ele>
        <time>2021-04-27T12:20:19.000Z</time>
      </trkpt>
      <trkpt lat="48.35653" lon="7.36657">
        <ele>712.1</ele>
        <time>2021-04-27T12:20:30.000Z</time>
      </trkpt>
      <trkpt lat="48.35661" lon="7.36649">
        <ele>716.8</ele>
        <time>2021-04-27T12:21:08.000Z</time>
      </trkpt>
      <trkpt lat="48.3567" lon="7.36649">
        <ele>719.3</ele>
        <time>2021-04-27T12:21:19.000Z</time>
      </trkpt>
      <trkpt lat="48.35679" lon="7.36648">
        <ele>719.8</ele>
        <time>2021-04-27T12:21:29.000Z</time>
      </trkpt>
      <trkpt lat="48.35689" lon="7.36646">
        <ele>720.6</ele>
        <time>2021-04-27T12:21:42.000Z</time>
      </trkpt>
      <trkpt lat="48.35698" lon="7.36645">
        <ele>721.1</ele>
        <time>2021-04-27T12:22:51.000Z</time>
      </trkpt>
      <trkpt lat="48.35707" lon="7.36644">
        <ele>721.7</ele>
        <time>2021-04-27T12:22:58.000Z</time>
      </trkpt>
      <trkpt lat="48.35716" lon="7.36637">
        <ele>723.3</ele>
        <time>2021-04-27T12:23:12.000Z</time>
      </trkpt>
      <trkpt lat="48.35725" lon="7.36629">
        <ele>725.5</ele>
        <time>2021-04-27T12:23:24.000Z</time>
      </trkpt>
      <trkpt lat="48.35733" lon="7.36623">
        <ele>727.2</ele>
        <time>2021-04-27T12:23:35.000Z</time>
      </trkpt>
      <trkpt lat="48.35738" lon="7.3661">
        <ele>730.3</ele>
        <time>2021-04-27T12:23:48.000Z</time>
      </trkpt>
      <trkpt lat="48.35739" lon="7.36596">
        <ele>733.3</ele>
        <time>2021-04-27T12:23:56.000Z</time>
      </trkpt>
      <trkpt lat="48.35747" lon="7.36587">
        <ele>736</ele>
        <time>2021-04-27T12:24:05.000Z</time>
      </trkpt>
      <trkpt lat="48.35756" lon="7.36584">
        <ele>735.5</ele>
        <time>2021-04-27T12:24:14.000Z</time>
      </trkpt>
      <trkpt lat="48.35765" lon="7.36577">
        <ele>735</ele>
        <time>2021-04-27T12:24:26.000Z</time>
      </trkpt>
      <trkpt lat="48.35769" lon="7.36565">
        <ele>736.4</ele>
        <time>2021-04-27T12:24:36.000Z</time>
      </trkpt>
      <trkpt lat="48.35773" lon="7.36552">
        <ele>738.3</ele>
        <time>2021-04-27T12:24:49.000Z</time>
      </trkpt>
      <trkpt lat="48.35781" lon="7.36545">
        <ele>738.4</ele>
        <time>2021-04-27T12:25:01.000Z</time>
      </trkpt>
      <trkpt lat="48.35788" lon="7.36536">
        <ele>738.9</ele>
        <time>2021-04-27T12:25:10.000Z</time>
      </trkpt>
      <trkpt lat="48.35794" lon="7.36525">
        <ele>740.3</ele>
        <time>2021-04-27T12:25:19.000Z</time>
      </trkpt>
      <trkpt lat="48.35799" lon="7.36512">
        <ele>742.6</ele>
        <time>2021-04-27T12:25:29.000Z</time>
      </trkpt>
      <trkpt lat="48.35805" lon="7.36501">
        <ele>744.2</ele>
        <time>2021-04-27T12:25:40.000Z</time>
      </trkpt>
      <trkpt lat="48.3581" lon="7.3649">
        <ele>745.1</ele>
        <time>2021-04-27T12:25:52.000Z</time>
      </trkpt>
      <trkpt lat="48.35815" lon="7.36477">
        <ele>746.3</ele>
        <time>2021-04-27T12:26:03.000Z</time>
      </trkpt>
      <trkpt lat="48.3582" lon="7.36464">
        <ele>747.9</ele>
        <time>2021-04-27T12:26:14.000Z</time>
      </trkpt>
      <trkpt lat="48.35824" lon="7.3645">
        <ele>749.7</ele>
        <time>2021-04-27T12:26:27.000Z</time>
      </trkpt>
      <trkpt lat="48.35828" lon="7.36438">
        <ele>751.6</ele>
        <time>2021-04-27T12:26:37.000Z</time>
      </trkpt>
      <trkpt lat="48.3583" lon="7.36424">
        <ele>753.8</ele>
        <time>2021-04-27T12:26:48.000Z</time>
      </trkpt>
      <trkpt lat="48.35837" lon="7.36412">
        <ele>754.6</ele>
        <time>2021-04-27T12:27:02.000Z</time>
      </trkpt>
      <trkpt lat="48.35839" lon="7.36399">
        <ele>755.2</ele>
        <time>2021-04-27T12:27:12.000Z</time>
      </trkpt>
      <trkpt lat="48.35837" lon="7.36386">
        <ele>756.7</ele>
        <time>2021-04-27T12:27:22.000Z</time>
      </trkpt>
      <trkpt lat="48.35832" lon="7.36373">
        <ele>758.1</ele>
        <time>2021-04-27T12:27:31.000Z</time>
      </trkpt>
      <trkpt lat="48.35824" lon="7.36365">
        <ele>758.1</ele>
        <time>2021-04-27T12:27:43.000Z</time>
      </trkpt>
      <trkpt lat="48.35816" lon="7.36358">
        <ele>757.9</ele>
        <time>2021-04-27T12:27:53.000Z</time>
      </trkpt>
      <trkpt lat="48.35808" lon="7.36351">
        <ele>757.5</ele>
        <time>2021-04-27T12:28:04.000Z</time>
      </trkpt>
      <trkpt lat="48.358" lon="7.36342">
        <ele>756.9</ele>
        <time>2021-04-27T12:28:14.000Z</time>
      </trkpt>
      <trkpt lat="48.35794" lon="7.36332">
        <ele>756.4</ele>
        <time>2021-04-27T12:28:24.000Z</time>
      </trkpt>
      <trkpt lat="48.35803" lon="7.36323">
        <ele>758.2</ele>
        <time>2021-04-27T12:28:47.000Z</time>
      </trkpt>
      <trkpt lat="48.3581" lon="7.36313">
        <ele>760.1</ele>
        <time>2021-04-27T12:28:58.000Z</time>
      </trkpt>
      <trkpt lat="48.35816" lon="7.36303">
        <ele>762.2</ele>
        <time>2021-04-27T12:29:07.000Z</time>
      </trkpt>
      <trkpt lat="48.35812" lon="7.3629">
        <ele>762.8</ele>
        <time>2021-04-27T12:29:19.000Z</time>
      </trkpt>
      <trkpt lat="48.35809" lon="7.36276">
        <ele>763.5</ele>
        <time>2021-04-27T12:29:30.000Z</time>
      </trkpt>
      <trkpt lat="48.35812" lon="7.36262">
        <ele>765.6</ele>
        <time>2021-04-27T12:29:49.000Z</time>
      </trkpt>
      <trkpt lat="48.35811" lon="7.36248">
        <ele>766.7</ele>
        <time>2021-04-27T12:30:03.000Z</time>
      </trkpt>
      <trkpt lat="48.35813" lon="7.36235">
        <ele>769.2</ele>
        <time>2021-04-27T12:30:16.000Z</time>
      </trkpt>
      <trkpt lat="48.35816" lon="7.36222">
        <ele>772.2</ele>
        <time>2021-04-27T12:30:29.000Z</time>
      </trkpt>
      <trkpt lat="48.35824" lon="7.36212">
        <ele>776.7</ele>
        <time>2021-04-27T12:30:42.000Z</time>
      </trkpt>
      <trkpt lat="48.35833" lon="7.36215">
        <ele>779.4</ele>
        <time>2021-04-27T12:30:53.000Z</time>
      </trkpt>
      <trkpt lat="48.35842" lon="7.36219">
        <ele>780.3</ele>
        <time>2021-04-27T12:31:04.000Z</time>
      </trkpt>
      <trkpt lat="48.3585" lon="7.36227">
        <ele>779.7</ele>
        <time>2021-04-27T12:31:25.000Z</time>
      </trkpt>
      <trkpt lat="48.35857" lon="7.36219">
        <ele>782.6</ele>
        <time>2021-04-27T12:31:37.000Z</time>
      </trkpt>
      <trkpt lat="48.35864" lon="7.3621">
        <ele>785.9</ele>
        <time>2021-04-27T12:32:29.000Z</time>
      </trkpt>
      <trkpt lat="48.35872" lon="7.36203">
        <ele>789</ele>
        <time>2021-04-27T12:32:51.000Z</time>
      </trkpt>
      <trkpt lat="48.3588" lon="7.3619">
        <ele>793.9</ele>
        <time>2021-04-27T12:33:11.000Z</time>
      </trkpt>
      <trkpt lat="48.35888" lon="7.36181">
        <ele>797.9</ele>
        <time>2021-04-27T12:33:23.000Z</time>
      </trkpt>
      <trkpt lat="48.35894" lon="7.36171">
        <ele>802.3</ele>
        <time>2021-04-27T12:33:33.000Z</time>
      </trkpt>
      <trkpt lat="48.35902" lon="7.36163">
        <ele>806.3</ele>
        <time>2021-04-27T12:33:45.000Z</time>
      </trkpt>
      <trkpt lat="48.35908" lon="7.36153">
        <ele>810.1</ele>
        <time>2021-04-27T12:33:57.000Z</time>
      </trkpt>
      <trkpt lat="48.35916" lon="7.36144">
        <ele>814.3</ele>
        <time>2021-04-27T12:34:10.000Z</time>
      </trkpt>
      <trkpt lat="48.35921" lon="7.36131">
        <ele>817.1</ele>
        <time>2021-04-27T12:34:26.000Z</time>
      </trkpt>
      <trkpt lat="48.35926" lon="7.3612">
        <ele>819.7</ele>
        <time>2021-04-27T12:34:41.000Z</time>
      </trkpt>
      <trkpt lat="48.3592" lon="7.36109">
        <ele>822.7</ele>
        <time>2021-04-27T12:35:17.000Z</time>
      </trkpt>
      <trkpt lat="48.35911" lon="7.36109">
        <ele>820.8</ele>
        <time>2021-04-27T12:35:31.000Z</time>
      </trkpt>
      <trkpt lat="48.35903" lon="7.36103">
        <ele>819.3</ele>
        <time>2021-04-27T12:35:42.000Z</time>
      </trkpt>
      <trkpt lat="48.35909" lon="7.36092">
        <ele>823.8</ele>
        <time>2021-04-27T12:36:01.000Z</time>
      </trkpt>
      <trkpt lat="48.35915" lon="7.36082">
        <ele>828.2</ele>
        <time>2021-04-27T12:36:20.000Z</time>
      </trkpt>
      <trkpt lat="48.35922" lon="7.36074">
        <ele>829.2</ele>
        <time>2021-04-27T12:36:37.000Z</time>
      </trkpt>
      <trkpt lat="48.35929" lon="7.36064">
        <ele>829.6</ele>
        <time>2021-04-27T12:36:51.000Z</time>
      </trkpt>
      <trkpt lat="48.35937" lon="7.36057">
        <ele>830</ele>
        <time>2021-04-27T12:37:05.000Z</time>
      </trkpt>
      <trkpt lat="48.35944" lon="7.36048">
        <ele>830.9</ele>
        <time>2021-04-27T12:37:18.000Z</time>
      </trkpt>
      <trkpt lat="48.35952" lon="7.3604">
        <ele>832</ele>
        <time>2021-04-27T12:37:33.000Z</time>
      </trkpt>
      <trkpt lat="48.35962" lon="7.36038">
        <ele>832.6</ele>
        <time>2021-04-27T12:37:45.000Z</time>
      </trkpt>
      <trkpt lat="48.3597" lon="7.36033">
        <ele>833.7</ele>
        <time>2021-04-27T12:37:53.000Z</time>
      </trkpt>
      <trkpt lat="48.35979" lon="7.36028">
        <ele>835</ele>
        <time>2021-04-27T12:38:03.000Z</time>
      </trkpt>
      <trkpt lat="48.35986" lon="7.3602">
        <ele>836.8</ele>
        <time>2021-04-27T12:38:13.000Z</time>
      </trkpt>
      <trkpt lat="48.35994" lon="7.36012">
        <ele>838.9</ele>
        <time>2021-04-27T12:39:35.000Z</time>
      </trkpt>
      <trkpt lat="48.36003" lon="7.36008">
        <ele>840.5</ele>
        <time>2021-04-27T12:39:45.000Z</time>
      </trkpt>
      <trkpt lat="48.36013" lon="7.36004">
        <ele>842</ele>
        <time>2021-04-27T12:40:02.000Z</time>
      </trkpt>
      <trkpt lat="48.36022" lon="7.36001">
        <ele>843.4</ele>
        <time>2021-04-27T12:40:13.000Z</time>
      </trkpt>
      <trkpt lat="48.36032" lon="7.36">
        <ele>844.3</ele>
        <time>2021-04-27T12:40:23.000Z</time>
      </trkpt>
      <trkpt lat="48.36041" lon="7.35995">
        <ele>845.3</ele>
        <time>2021-04-27T12:40:35.000Z</time>
      </trkpt>
      <trkpt lat="48.3605" lon="7.35991">
        <ele>846.5</ele>
        <time>2021-04-27T12:40:47.000Z</time>
      </trkpt>
      <trkpt lat="48.36059" lon="7.35992">
        <ele>847.2</ele>
        <time>2021-04-27T12:40:58.000Z</time>
      </trkpt>
      <trkpt lat="48.36069" lon="7.35992">
        <ele>848.1</ele>
        <time>2021-04-27T12:41:07.000Z</time>
      </trkpt>
      <trkpt lat="48.36078" lon="7.35987">
        <ele>849.5</ele>
        <time>2021-04-27T12:41:18.000Z</time>
      </trkpt>
      <trkpt lat="48.36087" lon="7.35985">
        <ele>850.9</ele>
        <time>2021-04-27T12:41:30.000Z</time>
      </trkpt>
      <trkpt lat="48.36096" lon="7.3598">
        <ele>852.9</ele>
        <time>2021-04-27T12:41:44.000Z</time>
      </trkpt>
      <trkpt lat="48.36103" lon="7.35973">
        <ele>855.3</ele>
        <time>2021-04-27T12:41:56.000Z</time>
      </trkpt>
      <trkpt lat="48.3611" lon="7.35962">
        <ele>858.4</ele>
        <time>2021-04-27T12:42:15.000Z</time>
      </trkpt>
      <trkpt lat="48.36118" lon="7.35955">
        <ele>861.3</ele>
        <time>2021-04-27T12:42:30.000Z</time>
      </trkpt>
      <trkpt lat="48.36125" lon="7.35943">
        <ele>865</ele>
        <time>2021-04-27T12:43:00.000Z</time>
      </trkpt>
      <trkpt lat="48.36135" lon="7.35929">
        <ele>870</ele>
        <time>2021-04-27T12:43:31.000Z</time>
      </trkpt>
      <trkpt lat="48.36141" lon="7.35919">
        <ele>873.6</ele>
        <time>2021-04-27T12:43:52.000Z</time>
      </trkpt>
      <trkpt lat="48.3615" lon="7.35919">
        <ele>875.6</ele>
        <time>2021-04-27T12:44:13.000Z</time>
      </trkpt>
      <trkpt lat="48.3616" lon="7.35917">
        <ele>878.4</ele>
        <time>2021-04-27T12:44:35.000Z</time>
      </trkpt>
      <trkpt lat="48.36168" lon="7.35912">
        <ele>879.9</ele>
        <time>2021-04-27T12:44:53.000Z</time>
      </trkpt>
      <trkpt lat="48.36178" lon="7.3591">
        <ele>880.5</ele>
        <time>2021-04-27T12:45:07.000Z</time>
      </trkpt>
      <trkpt lat="48.36187" lon="7.35906">
        <ele>881.2</ele>
        <time>2021-04-27T12:45:21.000Z</time>
      </trkpt>
      <trkpt lat="48.36188" lon="7.35893">
        <ele>881.3</ele>
        <time>2021-04-27T12:45:42.000Z</time>
      </trkpt>
      <trkpt lat="48.36195" lon="7.35882">
        <ele>882.1</ele>
        <time>2021-04-27T12:47:16.000Z</time>
      </trkpt>
      <trkpt lat="48.36202" lon="7.35872">
        <ele>883.2</ele>
        <time>2021-04-27T12:47:27.000Z</time>
      </trkpt>
      <trkpt lat="48.36209" lon="7.35863">
        <ele>884.5</ele>
        <time>2021-04-27T12:47:35.000Z</time>
      </trkpt>
      <trkpt lat="48.36221" lon="7.35861">
        <ele>886.5</ele>
        <time>2021-04-27T12:48:05.000Z</time>
      </trkpt>
      <trkpt lat="48.36229" lon="7.35869">
        <ele>887.1</ele>
        <time>2021-04-27T12:48:13.000Z</time>
      </trkpt>
      <trkpt lat="48.36236" lon="7.35878">
        <ele>887.4</ele>
        <time>2021-04-27T12:48:26.000Z</time>
      </trkpt>
      <trkpt lat="48.36246" lon="7.35874">
        <ele>889</ele>
        <time>2021-04-27T12:48:39.000Z</time>
      </trkpt>
      <trkpt lat="48.36255" lon="7.35869">
        <ele>889.4</ele>
        <time>2021-04-27T12:48:49.000Z</time>
      </trkpt>
      <trkpt lat="48.36264" lon="7.35872">
        <ele>887.6</ele>
        <time>2021-04-27T12:48:57.000Z</time>
      </trkpt>
      <trkpt lat="48.36272" lon="7.35865">
        <ele>887.3</ele>
        <time>2021-04-27T12:49:16.000Z</time>
      </trkpt>
      <trkpt lat="48.36277" lon="7.35877">
        <ele>884.9</ele>
        <time>2021-04-27T12:52:03.000Z</time>
      </trkpt>
      <trkpt lat="48.36282" lon="7.35864">
        <ele>885.9</ele>
        <time>2021-04-27T12:52:42.000Z</time>
      </trkpt>
      <trkpt lat="48.36274" lon="7.35855">
        <ele>888.3</ele>
        <time>2021-04-27T12:53:34.000Z</time>
      </trkpt>
      <trkpt lat="48.36276" lon="7.35869">
        <ele>886.2</ele>
        <time>2021-04-27T13:07:47.000Z</time>
      </trkpt>
      <trkpt lat="48.36269" lon="7.35859">
        <ele>888.4</ele>
        <time>2021-04-27T13:10:36.000Z</time>
      </trkpt>
      <trkpt lat="48.36261" lon="7.35867">
        <ele>888.7</ele>
        <time>2021-04-27T13:16:04.000Z</time>
      </trkpt>
      <trkpt lat="48.3626" lon="7.35853">
        <ele>890.4</ele>
        <time>2021-04-27T13:16:18.000Z</time>
      </trkpt>
      <trkpt lat="48.36259" lon="7.35839">
        <ele>892.3</ele>
        <time>2021-04-27T13:16:30.000Z</time>
      </trkpt>
      <trkpt lat="48.36265" lon="7.35827">
        <ele>890.9</ele>
        <time>2021-04-27T13:16:42.000Z</time>
      </trkpt>
      <trkpt lat="48.36272" lon="7.35817">
        <ele>887.8</ele>
        <time>2021-04-27T13:16:51.000Z</time>
      </trkpt>
      <trkpt lat="48.3628" lon="7.35812">
        <ele>885.5</ele>
        <time>2021-04-27T13:16:59.000Z</time>
      </trkpt>
      <trkpt lat="48.36289" lon="7.35809">
        <ele>883.9</ele>
        <time>2021-04-27T13:17:07.000Z</time>
      </trkpt>
      <trkpt lat="48.36299" lon="7.35806">
        <ele>882.1</ele>
        <time>2021-04-27T13:17:17.000Z</time>
      </trkpt>
      <trkpt lat="48.36308" lon="7.35806">
        <ele>880.9</ele>
        <time>2021-04-27T13:17:25.000Z</time>
      </trkpt>
      <trkpt lat="48.36318" lon="7.35807">
        <ele>880</ele>
        <time>2021-04-27T13:17:34.000Z</time>
      </trkpt>
      <trkpt lat="48.36328" lon="7.35806">
        <ele>878.8</ele>
        <time>2021-04-27T13:17:43.000Z</time>
      </trkpt>
      <trkpt lat="48.36338" lon="7.35805">
        <ele>876</ele>
        <time>2021-04-27T13:17:51.000Z</time>
      </trkpt>
      <trkpt lat="48.36331" lon="7.35795">
        <ele>875.9</ele>
        <time>2021-04-27T13:18:08.000Z</time>
      </trkpt>
      <trkpt lat="48.36322" lon="7.35787">
        <ele>875.2</ele>
        <time>2021-04-27T13:18:17.000Z</time>
      </trkpt>
      <trkpt lat="48.36314" lon="7.3578">
        <ele>874.7</ele>
        <time>2021-04-27T13:18:25.000Z</time>
      </trkpt>
      <trkpt lat="48.36305" lon="7.35775">
        <ele>874.7</ele>
        <time>2021-04-27T13:18:34.000Z</time>
      </trkpt>
      <trkpt lat="48.36307" lon="7.35762">
        <ele>871.4</ele>
        <time>2021-04-27T13:19:07.000Z</time>
      </trkpt>
      <trkpt lat="48.36317" lon="7.35759">
        <ele>869.7</ele>
        <time>2021-04-27T13:19:22.000Z</time>
      </trkpt>
      <trkpt lat="48.36326" lon="7.35764">
        <ele>869.8</ele>
        <time>2021-04-27T13:19:31.000Z</time>
      </trkpt>
      <trkpt lat="48.36335" lon="7.35764">
        <ele>868.6</ele>
        <time>2021-04-27T13:19:40.000Z</time>
      </trkpt>
      <trkpt lat="48.36345" lon="7.35767">
        <ele>866</ele>
        <time>2021-04-27T13:19:50.000Z</time>
      </trkpt>
      <trkpt lat="48.36354" lon="7.35771">
        <ele>863.7</ele>
        <time>2021-04-27T13:20:01.000Z</time>
      </trkpt>
      <trkpt lat="48.36363" lon="7.35772">
        <ele>860.8</ele>
        <time>2021-04-27T13:20:07.000Z</time>
      </trkpt>
      <trkpt lat="48.36374" lon="7.35776">
        <ele>858.1</ele>
        <time>2021-04-27T13:20:17.000Z</time>
      </trkpt>
      <trkpt lat="48.36382" lon="7.35782">
        <ele>856.6</ele>
        <time>2021-04-27T13:20:25.000Z</time>
      </trkpt>
      <trkpt lat="48.3639" lon="7.35787">
        <ele>854.4</ele>
        <time>2021-04-27T13:20:32.000Z</time>
      </trkpt>
      <trkpt lat="48.364" lon="7.35791">
        <ele>851.7</ele>
        <time>2021-04-27T13:20:41.000Z</time>
      </trkpt>
      <trkpt lat="48.36409" lon="7.35798">
        <ele>849.4</ele>
        <time>2021-04-27T13:20:51.000Z</time>
      </trkpt>
      <trkpt lat="48.36418" lon="7.35802">
        <ele>846.9</ele>
        <time>2021-04-27T13:20:58.000Z</time>
      </trkpt>
      <trkpt lat="48.36428" lon="7.35805">
        <ele>844</ele>
        <time>2021-04-27T13:21:05.000Z</time>
      </trkpt>
      <trkpt lat="48.36437" lon="7.35811">
        <ele>841.3</ele>
        <time>2021-04-27T13:21:14.000Z</time>
      </trkpt>
      <trkpt lat="48.36445" lon="7.35819">
        <ele>839.2</ele>
        <time>2021-04-27T13:21:21.000Z</time>
      </trkpt>
      <trkpt lat="48.36451" lon="7.35831">
        <ele>838.3</ele>
        <time>2021-04-27T13:21:31.000Z</time>
      </trkpt>
      <trkpt lat="48.36453" lon="7.35846">
        <ele>834.6</ele>
        <time>2021-04-27T13:21:41.000Z</time>
      </trkpt>
      <trkpt lat="48.36463" lon="7.35846">
        <ele>830.7</ele>
        <time>2021-04-27T13:21:55.000Z</time>
      </trkpt>
      <trkpt lat="48.36472" lon="7.35839">
        <ele>829</ele>
        <time>2021-04-27T13:22:04.000Z</time>
      </trkpt>
      <trkpt lat="48.36481" lon="7.35835">
        <ele>826.3</ele>
        <time>2021-04-27T13:22:15.000Z</time>
      </trkpt>
      <trkpt lat="48.36483" lon="7.35822">
        <ele>825.1</ele>
        <time>2021-04-27T13:22:30.000Z</time>
      </trkpt>
      <trkpt lat="48.36484" lon="7.35807">
        <ele>824</ele>
        <time>2021-04-27T13:22:39.000Z</time>
      </trkpt>
      <trkpt lat="48.36486" lon="7.35793">
        <ele>822.9</ele>
        <time>2021-04-27T13:22:49.000Z</time>
      </trkpt>
      <trkpt lat="48.36483" lon="7.35778">
        <ele>823.2</ele>
        <time>2021-04-27T13:22:59.000Z</time>
      </trkpt>
      <trkpt lat="48.36479" lon="7.35765">
        <ele>823.5</ele>
        <time>2021-04-27T13:23:06.000Z</time>
      </trkpt>
      <trkpt lat="48.36472" lon="7.35756">
        <ele>825.1</ele>
        <time>2021-04-27T13:23:13.000Z</time>
      </trkpt>
      <trkpt lat="48.36466" lon="7.35745">
        <ele>825.5</ele>
        <time>2021-04-27T13:23:21.000Z</time>
      </trkpt>
      <trkpt lat="48.36459" lon="7.35735">
        <ele>825</ele>
        <time>2021-04-27T13:23:28.000Z</time>
      </trkpt>
      <trkpt lat="48.36453" lon="7.35723">
        <ele>824.3</ele>
        <time>2021-04-27T13:23:38.000Z</time>
      </trkpt>
      <trkpt lat="48.36445" lon="7.35714">
        <ele>824.5</ele>
        <time>2021-04-27T13:23:46.000Z</time>
      </trkpt>
      <trkpt lat="48.36437" lon="7.35706">
        <ele>825.2</ele>
        <time>2021-04-27T13:23:54.000Z</time>
      </trkpt>
      <trkpt lat="48.36428" lon="7.357">
        <ele>826.2</ele>
        <time>2021-04-27T13:24:03.000Z</time>
      </trkpt>
      <trkpt lat="48.36419" lon="7.35692">
        <ele>826.9</ele>
        <time>2021-04-27T13:24:11.000Z</time>
      </trkpt>
      <trkpt lat="48.36411" lon="7.35685">
        <ele>826.9</ele>
        <time>2021-04-27T13:24:17.000Z</time>
      </trkpt>
      <trkpt lat="48.36403" lon="7.35678">
        <ele>826.9</ele>
        <time>2021-04-27T13:24:28.000Z</time>
      </trkpt>
      <trkpt lat="48.36412" lon="7.3568">
        <ele>825.7</ele>
        <time>2021-04-27T13:24:47.000Z</time>
      </trkpt>
      <trkpt lat="48.36422" lon="7.35681">
        <ele>823.7</ele>
        <time>2021-04-27T13:24:55.000Z</time>
      </trkpt>
      <trkpt lat="48.36431" lon="7.35684">
        <ele>821.9</ele>
        <time>2021-04-27T13:25:04.000Z</time>
      </trkpt>
      <trkpt lat="48.36441" lon="7.35688">
        <ele>820.2</ele>
        <time>2021-04-27T13:25:13.000Z</time>
      </trkpt>
      <trkpt lat="48.3645" lon="7.35692">
        <ele>818.6</ele>
        <time>2021-04-27T13:25:21.000Z</time>
      </trkpt>
      <trkpt lat="48.36459" lon="7.35697">
        <ele>817.3</ele>
        <time>2021-04-27T13:25:30.000Z</time>
      </trkpt>
      <trkpt lat="48.36467" lon="7.35705">
        <ele>816.6</ele>
        <time>2021-04-27T13:25:39.000Z</time>
      </trkpt>
      <trkpt lat="48.36476" lon="7.35706">
        <ele>814.4</ele>
        <time>2021-04-27T13:25:47.000Z</time>
      </trkpt>
      <trkpt lat="48.36485" lon="7.35711">
        <ele>813.2</ele>
        <time>2021-04-27T13:25:56.000Z</time>
      </trkpt>
      <trkpt lat="48.36493" lon="7.35718">
        <ele>812.3</ele>
        <time>2021-04-27T13:26:04.000Z</time>
      </trkpt>
      <trkpt lat="48.36502" lon="7.35724">
        <ele>810.9</ele>
        <time>2021-04-27T13:26:14.000Z</time>
      </trkpt>
      <trkpt lat="48.3651" lon="7.3573">
        <ele>809.4</ele>
        <time>2021-04-27T13:26:23.000Z</time>
      </trkpt>
      <trkpt lat="48.36519" lon="7.35733">
        <ele>806.8</ele>
        <time>2021-04-27T13:26:30.000Z</time>
      </trkpt>
      <trkpt lat="48.36529" lon="7.35738">
        <ele>804.3</ele>
        <time>2021-04-27T13:26:40.000Z</time>
      </trkpt>
      <trkpt lat="48.36538" lon="7.35742">
        <ele>801.8</ele>
        <time>2021-04-27T13:26:49.000Z</time>
      </trkpt>
      <trkpt lat="48.36547" lon="7.35749">
        <ele>800</ele>
        <time>2021-04-27T13:26:58.000Z</time>
      </trkpt>
      <trkpt lat="48.36555" lon="7.35757">
        <ele>797.3</ele>
        <time>2021-04-27T13:27:06.000Z</time>
      </trkpt>
      <trkpt lat="48.36563" lon="7.35764">
        <ele>794.2</ele>
        <time>2021-04-27T13:27:13.000Z</time>
      </trkpt>
      <trkpt lat="48.36572" lon="7.35769">
        <ele>790.8</ele>
        <time>2021-04-27T13:27:20.000Z</time>
      </trkpt>
      <trkpt lat="48.36581" lon="7.35775">
        <ele>787.8</ele>
        <time>2021-04-27T13:27:27.000Z</time>
      </trkpt>
      <trkpt lat="48.36585" lon="7.35787">
        <ele>785.6</ele>
        <time>2021-04-27T13:27:38.000Z</time>
      </trkpt>
      <trkpt lat="48.36585" lon="7.35801">
        <ele>785.4</ele>
        <time>2021-04-27T13:27:48.000Z</time>
      </trkpt>
      <trkpt lat="48.36595" lon="7.358">
        <ele>780.2</ele>
        <time>2021-04-27T13:28:01.000Z</time>
      </trkpt>
      <trkpt lat="48.36599" lon="7.35787">
        <ele>778.1</ele>
        <time>2021-04-27T13:28:12.000Z</time>
      </trkpt>
      <trkpt lat="48.366" lon="7.35772">
        <ele>777.8</ele>
        <time>2021-04-27T13:28:23.000Z</time>
      </trkpt>
      <trkpt lat="48.366" lon="7.35757">
        <ele>778.6</ele>
        <time>2021-04-27T13:28:31.000Z</time>
      </trkpt>
      <trkpt lat="48.36602" lon="7.35743">
        <ele>776.4</ele>
        <time>2021-04-27T13:28:37.000Z</time>
      </trkpt>
      <trkpt lat="48.36602" lon="7.35728">
        <ele>774.1</ele>
        <time>2021-04-27T13:28:45.000Z</time>
      </trkpt>
      <trkpt lat="48.36598" lon="7.35716">
        <ele>774.3</ele>
        <time>2021-04-27T13:28:54.000Z</time>
      </trkpt>
      <trkpt lat="48.36593" lon="7.35704">
        <ele>774.4</ele>
        <time>2021-04-27T13:29:03.000Z</time>
      </trkpt>
      <trkpt lat="48.36588" lon="7.3569">
        <ele>774.2</ele>
        <time>2021-04-27T13:29:11.000Z</time>
      </trkpt>
      <trkpt lat="48.36585" lon="7.35676">
        <ele>773.1</ele>
        <time>2021-04-27T13:29:23.000Z</time>
      </trkpt>
      <trkpt lat="48.36579" lon="7.35665">
        <ele>773.1</ele>
        <time>2021-04-27T13:29:34.000Z</time>
      </trkpt>
      <trkpt lat="48.36571" lon="7.35659">
        <ele>774.1</ele>
        <time>2021-04-27T13:29:44.000Z</time>
      </trkpt>
      <trkpt lat="48.36562" lon="7.35653">
        <ele>775</ele>
        <time>2021-04-27T13:29:52.000Z</time>
      </trkpt>
      <trkpt lat="48.36555" lon="7.35643">
        <ele>774.6</ele>
        <time>2021-04-27T13:29:59.000Z</time>
      </trkpt>
      <trkpt lat="48.36548" lon="7.35633">
        <ele>774</ele>
        <time>2021-04-27T13:30:08.000Z</time>
      </trkpt>
      <trkpt lat="48.36542" lon="7.35623">
        <ele>773</ele>
        <time>2021-04-27T13:30:15.000Z</time>
      </trkpt>
      <trkpt lat="48.36536" lon="7.35612">
        <ele>771.8</ele>
        <time>2021-04-27T13:30:23.000Z</time>
      </trkpt>
      <trkpt lat="48.36531" lon="7.35601">
        <ele>770.4</ele>
        <time>2021-04-27T13:30:30.000Z</time>
      </trkpt>
      <trkpt lat="48.36524" lon="7.3559">
        <ele>769.5</ele>
        <time>2021-04-27T13:30:38.000Z</time>
      </trkpt>
      <trkpt lat="48.36518" lon="7.35577">
        <ele>768.2</ele>
        <time>2021-04-27T13:30:46.000Z</time>
      </trkpt>
      <trkpt lat="48.36513" lon="7.35564">
        <ele>766.3</ele>
        <time>2021-04-27T13:30:54.000Z</time>
      </trkpt>
      <trkpt lat="48.36507" lon="7.35554">
        <ele>765.7</ele>
        <time>2021-04-27T13:31:01.000Z</time>
      </trkpt>
      <trkpt lat="48.36502" lon="7.35541">
        <ele>764.1</ele>
        <time>2021-04-27T13:31:08.000Z</time>
      </trkpt>
      <trkpt lat="48.36498" lon="7.35528">
        <ele>762</ele>
        <time>2021-04-27T13:31:16.000Z</time>
      </trkpt>
      <trkpt lat="48.36494" lon="7.35516">
        <ele>759.8</ele>
        <time>2021-04-27T13:31:24.000Z</time>
      </trkpt>
      <trkpt lat="48.36488" lon="7.35506">
        <ele>758.7</ele>
        <time>2021-04-27T13:31:34.000Z</time>
      </trkpt>
      <trkpt lat="48.36497" lon="7.35503">
        <ele>755.5</ele>
        <time>2021-04-27T13:31:49.000Z</time>
      </trkpt>
      <trkpt lat="48.36505" lon="7.35511">
        <ele>755</ele>
        <time>2021-04-27T13:32:00.000Z</time>
      </trkpt>
      <trkpt lat="48.36514" lon="7.35514">
        <ele>752.7</ele>
        <time>2021-04-27T13:32:08.000Z</time>
      </trkpt>
      <trkpt lat="48.36525" lon="7.35517">
        <ele>749.8</ele>
        <time>2021-04-27T13:32:18.000Z</time>
      </trkpt>
      <trkpt lat="48.36533" lon="7.35526">
        <ele>749.2</ele>
        <time>2021-04-27T13:32:27.000Z</time>
      </trkpt>
      <trkpt lat="48.3654" lon="7.35534">
        <ele>748.6</ele>
        <time>2021-04-27T13:32:38.000Z</time>
      </trkpt>
      <trkpt lat="48.36549" lon="7.35539">
        <ele>747.1</ele>
        <time>2021-04-27T13:32:49.000Z</time>
      </trkpt>
      <trkpt lat="48.36556" lon="7.35549">
        <ele>747.3</ele>
        <time>2021-04-27T13:33:00.000Z</time>
      </trkpt>
      <trkpt lat="48.36565" lon="7.35555">
        <ele>745.4</ele>
        <time>2021-04-27T13:33:07.000Z</time>
      </trkpt>
      <trkpt lat="48.36574" lon="7.35557">
        <ele>742.9</ele>
        <time>2021-04-27T13:33:17.000Z</time>
      </trkpt>
      <trkpt lat="48.36583" lon="7.35564">
        <ele>741.7</ele>
        <time>2021-04-27T13:33:28.000Z</time>
      </trkpt>
      <trkpt lat="48.36592" lon="7.35568">
        <ele>740.5</ele>
        <time>2021-04-27T13:33:36.000Z</time>
      </trkpt>
      <trkpt lat="48.366" lon="7.35574">
        <ele>739.6</ele>
        <time>2021-04-27T13:33:43.000Z</time>
      </trkpt>
      <trkpt lat="48.3661" lon="7.35578">
        <ele>738</ele>
        <time>2021-04-27T13:33:51.000Z</time>
      </trkpt>
      <trkpt lat="48.36619" lon="7.35583">
        <ele>736.7</ele>
        <time>2021-04-27T13:33:59.000Z</time>
      </trkpt>
      <trkpt lat="48.36628" lon="7.35589">
        <ele>735.6</ele>
        <time>2021-04-27T13:34:06.000Z</time>
      </trkpt>
      <trkpt lat="48.36637" lon="7.35593">
        <ele>733.9</ele>
        <time>2021-04-27T13:34:15.000Z</time>
      </trkpt>
      <trkpt lat="48.36646" lon="7.35597">
        <ele>732.1</ele>
        <time>2021-04-27T13:34:22.000Z</time>
      </trkpt>
      <trkpt lat="48.36656" lon="7.35602">
        <ele>730.1</ele>
        <time>2021-04-27T13:34:29.000Z</time>
      </trkpt>
      <trkpt lat="48.36666" lon="7.35602">
        <ele>727.2</ele>
        <time>2021-04-27T13:34:37.000Z</time>
      </trkpt>
      <trkpt lat="48.36675" lon="7.35604">
        <ele>726.1</ele>
        <time>2021-04-27T13:34:46.000Z</time>
      </trkpt>
      <trkpt lat="48.36684" lon="7.35606">
        <ele>725</ele>
        <time>2021-04-27T13:34:55.000Z</time>
      </trkpt>
      <trkpt lat="48.36694" lon="7.35605">
        <ele>723.5</ele>
        <time>2021-04-27T13:35:05.000Z</time>
      </trkpt>
      <trkpt lat="48.36703" lon="7.356">
        <ele>721.8</ele>
        <time>2021-04-27T13:35:14.000Z</time>
      </trkpt>
      <trkpt lat="48.36713" lon="7.35597">
        <ele>720.4</ele>
        <time>2021-04-27T13:35:21.000Z</time>
      </trkpt>
      <trkpt lat="48.36722" lon="7.35593">
        <ele>719.2</ele>
        <time>2021-04-27T13:35:27.000Z</time>
      </trkpt>
      <trkpt lat="48.36731" lon="7.3559">
        <ele>718.3</ele>
        <time>2021-04-27T13:35:32.000Z</time>
      </trkpt>
      <trkpt lat="48.36741" lon="7.35589">
        <ele>717.4</ele>
        <time>2021-04-27T13:35:37.000Z</time>
      </trkpt>
      <trkpt lat="48.3675" lon="7.35592">
        <ele>716.4</ele>
        <time>2021-04-27T13:35:45.000Z</time>
      </trkpt>
      <trkpt lat="48.36759" lon="7.35595">
        <ele>716.4</ele>
        <time>2021-04-27T13:35:52.000Z</time>
      </trkpt>
      <trkpt lat="48.36768" lon="7.35598">
        <ele>716.2</ele>
        <time>2021-04-27T13:35:59.000Z</time>
      </trkpt>
      <trkpt lat="48.36778" lon="7.356">
        <ele>716.2</ele>
        <time>2021-04-27T13:36:07.000Z</time>
      </trkpt>
      <trkpt lat="48.36787" lon="7.35605">
        <ele>715.8</ele>
        <time>2021-04-27T13:36:17.000Z</time>
      </trkpt>
      <trkpt lat="48.36797" lon="7.35607">
        <ele>715.5</ele>
        <time>2021-04-27T13:36:23.000Z</time>
      </trkpt>
      <trkpt lat="48.36806" lon="7.35613">
        <ele>714.8</ele>
        <time>2021-04-27T13:36:34.000Z</time>
      </trkpt>
      <trkpt lat="48.36816" lon="7.35613">
        <ele>714.7</ele>
        <time>2021-04-27T13:36:44.000Z</time>
      </trkpt>
      <trkpt lat="48.36826" lon="7.35612">
        <ele>714.9</ele>
        <time>2021-04-27T13:36:52.000Z</time>
      </trkpt>
      <trkpt lat="48.36837" lon="7.35604">
        <ele>715.2</ele>
        <time>2021-04-27T13:37:12.000Z</time>
      </trkpt>
      <trkpt lat="48.36843" lon="7.35594">
        <ele>715</ele>
        <time>2021-04-27T13:37:24.000Z</time>
      </trkpt>
      <trkpt lat="48.36848" lon="7.35581">
        <ele>715.2</ele>
        <time>2021-04-27T13:37:34.000Z</time>
      </trkpt>
      <trkpt lat="48.36854" lon="7.3557">
        <ele>714.1</ele>
        <time>2021-04-27T13:37:41.000Z</time>
      </trkpt>
      <trkpt lat="48.3686" lon="7.3556">
        <ele>712.6</ele>
        <time>2021-04-27T13:37:50.000Z</time>
      </trkpt>
      <trkpt lat="48.36866" lon="7.35549">
        <ele>711.3</ele>
        <time>2021-04-27T13:37:57.000Z</time>
      </trkpt>
      <trkpt lat="48.36872" lon="7.35537">
        <ele>710</ele>
        <time>2021-04-27T13:38:06.000Z</time>
      </trkpt>
      <trkpt lat="48.36876" lon="7.35524">
        <ele>709.3</ele>
        <time>2021-04-27T13:38:14.000Z</time>
      </trkpt>
      <trkpt lat="48.36882" lon="7.35512">
        <ele>708.4</ele>
        <time>2021-04-27T13:38:23.000Z</time>
      </trkpt>
      <trkpt lat="48.36889" lon="7.35502">
        <ele>706.8</ele>
        <time>2021-04-27T13:38:30.000Z</time>
      </trkpt>
      <trkpt lat="48.36896" lon="7.3549">
        <ele>705.4</ele>
        <time>2021-04-27T13:38:39.000Z</time>
      </trkpt>
      <trkpt lat="48.36901" lon="7.35478">
        <ele>704.5</ele>
        <time>2021-04-27T13:38:47.000Z</time>
      </trkpt>
      <trkpt lat="48.36907" lon="7.35467">
        <ele>703.6</ele>
        <time>2021-04-27T13:38:54.000Z</time>
      </trkpt>
      <trkpt lat="48.36913" lon="7.35457">
        <ele>702.8</ele>
        <time>2021-04-27T13:39:00.000Z</time>
      </trkpt>
      <trkpt lat="48.36919" lon="7.35445">
        <ele>702.4</ele>
        <time>2021-04-27T13:39:08.000Z</time>
      </trkpt>
      <trkpt lat="48.36922" lon="7.35432">
        <ele>702.4</ele>
        <time>2021-04-27T13:39:18.000Z</time>
      </trkpt>
      <trkpt lat="48.36928" lon="7.35421">
        <ele>701.5</ele>
        <time>2021-04-27T13:39:23.000Z</time>
      </trkpt>
      <trkpt lat="48.36933" lon="7.35409">
        <ele>700.4</ele>
        <time>2021-04-27T13:39:30.000Z</time>
      </trkpt>
      <trkpt lat="48.36937" lon="7.35396">
        <ele>699.3</ele>
        <time>2021-04-27T13:39:35.000Z</time>
      </trkpt>
      <trkpt lat="48.36939" lon="7.35382">
        <ele>699.1</ele>
        <time>2021-04-27T13:39:43.000Z</time>
      </trkpt>
      <trkpt lat="48.36939" lon="7.35368">
        <ele>699.3</ele>
        <time>2021-04-27T13:39:54.000Z</time>
      </trkpt>
      <trkpt lat="48.36945" lon="7.35355">
        <ele>697.9</ele>
        <time>2021-04-27T13:40:01.000Z</time>
      </trkpt>
      <trkpt lat="48.3695" lon="7.35344">
        <ele>696.7</ele>
        <time>2021-04-27T13:40:07.000Z</time>
      </trkpt>
      <trkpt lat="48.36956" lon="7.35334">
        <ele>695.5</ele>
        <time>2021-04-27T13:40:13.000Z</time>
      </trkpt>
      <trkpt lat="48.3696" lon="7.35321">
        <ele>694.2</ele>
        <time>2021-04-27T13:40:21.000Z</time>
      </trkpt>
      <trkpt lat="48.36965" lon="7.35309">
        <ele>692.9</ele>
        <time>2021-04-27T13:40:29.000Z</time>
      </trkpt>
      <trkpt lat="48.36968" lon="7.35296">
        <ele>692.1</ele>
        <time>2021-04-27T13:40:38.000Z</time>
      </trkpt>
      <trkpt lat="48.36973" lon="7.35284">
        <ele>691.2</ele>
        <time>2021-04-27T13:40:45.000Z</time>
      </trkpt>
      <trkpt lat="48.36978" lon="7.3527">
        <ele>690.6</ele>
        <time>2021-04-27T13:40:52.000Z</time>
      </trkpt>
      <trkpt lat="48.36981" lon="7.35257">
        <ele>690.3</ele>
        <time>2021-04-27T13:40:59.000Z</time>
      </trkpt>
      <trkpt lat="48.36984" lon="7.35244">
        <ele>690.1</ele>
        <time>2021-04-27T13:41:06.000Z</time>
      </trkpt>
      <trkpt lat="48.36986" lon="7.35231">
        <ele>689.8</ele>
        <time>2021-04-27T13:41:15.000Z</time>
      </trkpt>
      <trkpt lat="48.3699" lon="7.35218">
        <ele>689.5</ele>
        <time>2021-04-27T13:41:20.000Z</time>
      </trkpt>
      <trkpt lat="48.36993" lon="7.35204">
        <ele>689.5</ele>
        <time>2021-04-27T13:41:29.000Z</time>
      </trkpt>
      <trkpt lat="48.36996" lon="7.3519">
        <ele>689.6</ele>
        <time>2021-04-27T13:41:36.000Z</time>
      </trkpt>
      <trkpt lat="48.37005" lon="7.35181">
        <ele>689.7</ele>
        <time>2021-04-27T13:42:22.000Z</time>
      </trkpt>
      <trkpt lat="48.37004" lon="7.35167">
        <ele>690</ele>
        <time>2021-04-27T13:42:29.000Z</time>
      </trkpt>
      <trkpt lat="48.37" lon="7.35152">
        <ele>689.8</ele>
        <time>2021-04-27T13:42:34.000Z</time>
      </trkpt>
      <trkpt lat="48.36995" lon="7.3514">
        <ele>689.1</ele>
        <time>2021-04-27T13:42:41.000Z</time>
      </trkpt>
      <trkpt lat="48.36993" lon="7.35127">
        <ele>688.5</ele>
        <time>2021-04-27T13:42:50.000Z</time>
      </trkpt>
      <trkpt lat="48.36991" lon="7.35113">
        <ele>688</ele>
        <time>2021-04-27T13:42:57.000Z</time>
      </trkpt>
      <trkpt lat="48.3699" lon="7.35099">
        <ele>687.5</ele>
        <time>2021-04-27T13:43:06.000Z</time>
      </trkpt>
      <trkpt lat="48.36982" lon="7.3508">
        <ele>685.3</ele>
        <time>2021-04-27T13:43:49.000Z</time>
      </trkpt>
      <trkpt lat="48.36985" lon="7.35092">
        <ele>686.4</ele>
        <time>2021-04-27T13:44:10.000Z</time>
      </trkpt>
      <trkpt lat="48.36986" lon="7.35106">
        <ele>687</ele>
        <time>2021-04-27T13:44:17.000Z</time>
      </trkpt>
      <trkpt lat="48.36988" lon="7.3512">
        <ele>687.7</ele>
        <time>2021-04-27T13:44:24.000Z</time>
      </trkpt>
      <trkpt lat="48.36991" lon="7.35134">
        <ele>688.5</ele>
        <time>2021-04-27T13:44:31.000Z</time>
      </trkpt>
      <trkpt lat="48.36993" lon="7.35149">
        <ele>689.1</ele>
        <time>2021-04-27T13:44:38.000Z</time>
      </trkpt>
      <trkpt lat="48.36995" lon="7.35164">
        <ele>689.6</ele>
        <time>2021-04-27T13:44:45.000Z</time>
      </trkpt>
      <trkpt lat="48.36997" lon="7.35178">
        <ele>689.7</ele>
        <time>2021-04-27T13:44:52.000Z</time>
      </trkpt>
      <trkpt lat="48.36999" lon="7.35192">
        <ele>689.7</ele>
        <time>2021-04-27T13:44:59.000Z</time>
      </trkpt>
      <trkpt lat="48.37002" lon="7.35206">
        <ele>689.5</ele>
        <time>2021-04-27T13:45:06.000Z</time>
      </trkpt>
      <trkpt lat="48.37006" lon="7.3522">
        <ele>689.1</ele>
        <time>2021-04-27T13:45:14.000Z</time>
      </trkpt>
      <trkpt lat="48.37008" lon="7.35234">
        <ele>688.8</ele>
        <time>2021-04-27T13:45:21.000Z</time>
      </trkpt>
      <trkpt lat="48.37012" lon="7.35248">
        <ele>688.3</ele>
        <time>2021-04-27T13:45:29.000Z</time>
      </trkpt>
      <trkpt lat="48.37015" lon="7.35262">
        <ele>687.5</ele>
        <time>2021-04-27T13:45:36.000Z</time>
      </trkpt>
      <trkpt lat="48.37022" lon="7.35273">
        <ele>686.5</ele>
        <time>2021-04-27T13:45:44.000Z</time>
      </trkpt>
      <trkpt lat="48.37026" lon="7.35285">
        <ele>685.5</ele>
        <time>2021-04-27T13:45:51.000Z</time>
      </trkpt>
      <trkpt lat="48.3703" lon="7.35299">
        <ele>684.4</ele>
        <time>2021-04-27T13:45:59.000Z</time>
      </trkpt>
      <trkpt lat="48.37034" lon="7.35313">
        <ele>683.3</ele>
        <time>2021-04-27T13:46:07.000Z</time>
      </trkpt>
      <trkpt lat="48.37037" lon="7.35326">
        <ele>682.3</ele>
        <time>2021-04-27T13:46:14.000Z</time>
      </trkpt>
      <trkpt lat="48.37039" lon="7.3534">
        <ele>681.4</ele>
        <time>2021-04-27T13:46:22.000Z</time>
      </trkpt>
      <trkpt lat="48.3704" lon="7.35354">
        <ele>680.6</ele>
        <time>2021-04-27T13:46:31.000Z</time>
      </trkpt>
      <trkpt lat="48.37041" lon="7.35369">
        <ele>679.7</ele>
        <time>2021-04-27T13:46:44.000Z</time>
      </trkpt>
      <trkpt lat="48.37043" lon="7.35384">
        <ele>678.6</ele>
        <time>2021-04-27T13:47:53.000Z</time>
      </trkpt>
      <trkpt lat="48.37044" lon="7.35399">
        <ele>677.7</ele>
        <time>2021-04-27T13:48:03.000Z</time>
      </trkpt>
      <trkpt lat="48.37048" lon="7.35412">
        <ele>676.6</ele>
        <time>2021-04-27T13:48:11.000Z</time>
      </trkpt>
      <trkpt lat="48.37054" lon="7.35424">
        <ele>676</ele>
        <time>2021-04-27T13:48:20.000Z</time>
      </trkpt>
      <trkpt lat="48.37061" lon="7.35434">
        <ele>675.5</ele>
        <time>2021-04-27T13:48:27.000Z</time>
      </trkpt>
      <trkpt lat="48.37068" lon="7.35445">
        <ele>675.2</ele>
        <time>2021-04-27T13:48:36.000Z</time>
      </trkpt>
      <trkpt lat="48.3707" lon="7.35459">
        <ele>675.3</ele>
        <time>2021-04-27T13:48:46.000Z</time>
      </trkpt>
      <trkpt lat="48.3707" lon="7.35473">
        <ele>675.7</ele>
        <time>2021-04-27T13:48:53.000Z</time>
      </trkpt>
      <trkpt lat="48.37072" lon="7.35487">
        <ele>675.8</ele>
        <time>2021-04-27T13:49:01.000Z</time>
      </trkpt>
      <trkpt lat="48.37073" lon="7.35501">
        <ele>676</ele>
        <time>2021-04-27T13:49:09.000Z</time>
      </trkpt>
      <trkpt lat="48.37076" lon="7.35515">
        <ele>675.7</ele>
        <time>2021-04-27T13:49:18.000Z</time>
      </trkpt>
      <trkpt lat="48.37078" lon="7.35529">
        <ele>675.5</ele>
        <time>2021-04-27T13:49:26.000Z</time>
      </trkpt>
      <trkpt lat="48.3708" lon="7.35543">
        <ele>675.3</ele>
        <time>2021-04-27T13:49:35.000Z</time>
      </trkpt>
      <trkpt lat="48.37084" lon="7.35555">
        <ele>674.8</ele>
        <time>2021-04-27T13:49:43.000Z</time>
      </trkpt>
      <trkpt lat="48.37088" lon="7.3557">
        <ele>673.7</ele>
        <time>2021-04-27T13:49:49.000Z</time>
      </trkpt>
      <trkpt lat="48.37092" lon="7.35582">
        <ele>672.6</ele>
        <time>2021-04-27T13:49:55.000Z</time>
      </trkpt>
      <trkpt lat="48.37095" lon="7.35596">
        <ele>671.2</ele>
        <time>2021-04-27T13:50:01.000Z</time>
      </trkpt>
      <trkpt lat="48.37098" lon="7.35609">
        <ele>669.7</ele>
        <time>2021-04-27T13:50:09.000Z</time>
      </trkpt>
      <trkpt lat="48.37101" lon="7.35623">
        <ele>668.5</ele>
        <time>2021-04-27T13:50:16.000Z</time>
      </trkpt>
      <trkpt lat="48.37107" lon="7.35634">
        <ele>666.8</ele>
        <time>2021-04-27T13:50:23.000Z</time>
      </trkpt>
      <trkpt lat="48.37112" lon="7.35647">
        <ele>665.6</ele>
        <time>2021-04-27T13:50:30.000Z</time>
      </trkpt>
      <trkpt lat="48.37117" lon="7.35659">
        <ele>664.5</ele>
        <time>2021-04-27T13:50:38.000Z</time>
      </trkpt>
      <trkpt lat="48.37121" lon="7.35672">
        <ele>663.6</ele>
        <time>2021-04-27T13:50:46.000Z</time>
      </trkpt>
      <trkpt lat="48.37122" lon="7.35686">
        <ele>662.7</ele>
        <time>2021-04-27T13:50:54.000Z</time>
      </trkpt>
      <trkpt lat="48.37121" lon="7.35701">
        <ele>662.3</ele>
        <time>2021-04-27T13:51:02.000Z</time>
      </trkpt>
      <trkpt lat="48.3712" lon="7.35715">
        <ele>661.9</ele>
        <time>2021-04-27T13:51:08.000Z</time>
      </trkpt>
      <trkpt lat="48.37121" lon="7.35729">
        <ele>661.2</ele>
        <time>2021-04-27T13:51:16.000Z</time>
      </trkpt>
      <trkpt lat="48.37126" lon="7.35741">
        <ele>660.2</ele>
        <time>2021-04-27T13:51:28.000Z</time>
      </trkpt>
      <trkpt lat="48.37131" lon="7.35754">
        <ele>659.2</ele>
        <time>2021-04-27T13:51:37.000Z</time>
      </trkpt>
      <trkpt lat="48.37134" lon="7.35766">
        <ele>657.9</ele>
        <time>2021-04-27T13:51:46.000Z</time>
      </trkpt>
      <trkpt lat="48.3714" lon="7.35778">
        <ele>656.7</ele>
        <time>2021-04-27T13:51:54.000Z</time>
      </trkpt>
      <trkpt lat="48.37149" lon="7.35786">
        <ele>655.7</ele>
        <time>2021-04-27T13:52:02.000Z</time>
      </trkpt>
      <trkpt lat="48.37157" lon="7.35795">
        <ele>654.9</ele>
        <time>2021-04-27T13:52:10.000Z</time>
      </trkpt>
      <trkpt lat="48.37165" lon="7.35802">
        <ele>654.2</ele>
        <time>2021-04-27T13:52:17.000Z</time>
      </trkpt>
      <trkpt lat="48.37173" lon="7.35812">
        <ele>652.9</ele>
        <time>2021-04-27T13:52:25.000Z</time>
      </trkpt>
      <trkpt lat="48.3718" lon="7.35822">
        <ele>651.8</ele>
        <time>2021-04-27T13:52:33.000Z</time>
      </trkpt>
      <trkpt lat="48.37187" lon="7.35831">
        <ele>650.9</ele>
        <time>2021-04-27T13:52:43.000Z</time>
      </trkpt>
      <trkpt lat="48.37193" lon="7.35843">
        <ele>649.7</ele>
        <time>2021-04-27T13:52:51.000Z</time>
      </trkpt>
      <trkpt lat="48.37199" lon="7.35855">
        <ele>648.6</ele>
        <time>2021-04-27T13:52:58.000Z</time>
      </trkpt>
      <trkpt lat="48.37205" lon="7.35866">
        <ele>647.7</ele>
        <time>2021-04-27T13:53:03.000Z</time>
      </trkpt>
      <trkpt lat="48.37211" lon="7.35879">
        <ele>647</ele>
        <time>2021-04-27T13:53:10.000Z</time>
      </trkpt>
      <trkpt lat="48.37214" lon="7.35892">
        <ele>646.6</ele>
        <time>2021-04-27T13:53:16.000Z</time>
      </trkpt>
      <trkpt lat="48.37217" lon="7.35907">
        <ele>646.2</ele>
        <time>2021-04-27T13:53:22.000Z</time>
      </trkpt>
      <trkpt lat="48.3722" lon="7.3592">
        <ele>645.6</ele>
        <time>2021-04-27T13:53:29.000Z</time>
      </trkpt>
      <trkpt lat="48.37227" lon="7.3593">
        <ele>644.6</ele>
        <time>2021-04-27T13:53:38.000Z</time>
      </trkpt>
      <trkpt lat="48.37234" lon="7.35938">
        <ele>643.9</ele>
        <time>2021-04-27T13:53:46.000Z</time>
      </trkpt>
      <trkpt lat="48.37241" lon="7.35947">
        <ele>643.2</ele>
        <time>2021-04-27T13:53:52.000Z</time>
      </trkpt>
      <trkpt lat="48.37248" lon="7.35957">
        <ele>642.6</ele>
        <time>2021-04-27T13:53:59.000Z</time>
      </trkpt>
      <trkpt lat="48.37254" lon="7.35968">
        <ele>641.3</ele>
        <time>2021-04-27T13:54:05.000Z</time>
      </trkpt>
      <trkpt lat="48.3726" lon="7.35979">
        <ele>639.9</ele>
        <time>2021-04-27T13:54:12.000Z</time>
      </trkpt>
      <trkpt lat="48.37265" lon="7.35991">
        <ele>638.6</ele>
        <time>2021-04-27T13:54:18.000Z</time>
      </trkpt>
      <trkpt lat="48.3727" lon="7.36004">
        <ele>637.4</ele>
        <time>2021-04-27T13:54:25.000Z</time>
      </trkpt>
      <trkpt lat="48.37275" lon="7.36017">
        <ele>636.7</ele>
        <time>2021-04-27T13:54:33.000Z</time>
      </trkpt>
      <trkpt lat="48.37278" lon="7.36031">
        <ele>636.1</ele>
        <time>2021-04-27T13:54:41.000Z</time>
      </trkpt>
      <trkpt lat="48.37275" lon="7.36044">
        <ele>635.8</ele>
        <time>2021-04-27T13:54:52.000Z</time>
      </trkpt>
      <trkpt lat="48.37271" lon="7.36056">
        <ele>635.5</ele>
        <time>2021-04-27T13:54:59.000Z</time>
      </trkpt>
      <trkpt lat="48.37269" lon="7.3607">
        <ele>635</ele>
        <time>2021-04-27T13:55:06.000Z</time>
      </trkpt>
      <trkpt lat="48.37269" lon="7.36085">
        <ele>634.4</ele>
        <time>2021-04-27T13:55:16.000Z</time>
      </trkpt>
      <trkpt lat="48.37276" lon="7.36098">
        <ele>633.8</ele>
        <time>2021-04-27T13:56:04.000Z</time>
      </trkpt>
      <trkpt lat="48.37281" lon="7.36111">
        <ele>633.6</ele>
        <time>2021-04-27T13:56:15.000Z</time>
      </trkpt>
      <trkpt lat="48.37289" lon="7.3612">
        <ele>634</ele>
        <time>2021-04-27T13:56:26.000Z</time>
      </trkpt>
      <trkpt lat="48.37297" lon="7.36126">
        <ele>634.9</ele>
        <time>2021-04-27T13:56:35.000Z</time>
      </trkpt>
      <trkpt lat="48.37306" lon="7.36132">
        <ele>635.9</ele>
        <time>2021-04-27T13:56:43.000Z</time>
      </trkpt>
      <trkpt lat="48.37311" lon="7.36144">
        <ele>636.9</ele>
        <time>2021-04-27T13:57:03.000Z</time>
      </trkpt>
      <trkpt lat="48.37318" lon="7.36156">
        <ele>638.4</ele>
        <time>2021-04-27T13:57:10.000Z</time>
      </trkpt>
      <trkpt lat="48.37321" lon="7.36171">
        <ele>639.2</ele>
        <time>2021-04-27T13:57:17.000Z</time>
      </trkpt>
      <trkpt lat="48.37323" lon="7.36184">
        <ele>638.6</ele>
        <time>2021-04-27T13:57:23.000Z</time>
      </trkpt>
      <trkpt lat="48.37326" lon="7.36199">
        <ele>638.2</ele>
        <time>2021-04-27T13:57:32.000Z</time>
      </trkpt>
      <trkpt lat="48.37329" lon="7.36213">
        <ele>638.1</ele>
        <time>2021-04-27T13:57:38.000Z</time>
      </trkpt>
      <trkpt lat="48.37332" lon="7.36228">
        <ele>638</ele>
        <time>2021-04-27T13:57:45.000Z</time>
      </trkpt>
      <trkpt lat="48.37333" lon="7.36242">
        <ele>637.5</ele>
        <time>2021-04-27T13:57:53.000Z</time>
      </trkpt>
      <trkpt lat="48.37337" lon="7.36255">
        <ele>637.1</ele>
        <time>2021-04-27T13:58:00.000Z</time>
      </trkpt>
      <trkpt lat="48.37339" lon="7.36269">
        <ele>635.9</ele>
        <time>2021-04-27T13:58:08.000Z</time>
      </trkpt>
      <trkpt lat="48.37342" lon="7.36284">
        <ele>634.9</ele>
        <time>2021-04-27T13:58:17.000Z</time>
      </trkpt>
      <trkpt lat="48.37345" lon="7.36298">
        <ele>634.1</ele>
        <time>2021-04-27T13:58:25.000Z</time>
      </trkpt>
      <trkpt lat="48.37348" lon="7.36311">
        <ele>633.8</ele>
        <time>2021-04-27T13:58:32.000Z</time>
      </trkpt>
      <trkpt lat="48.37351" lon="7.36325">
        <ele>633.4</ele>
        <time>2021-04-27T13:58:39.000Z</time>
      </trkpt>
      <trkpt lat="48.37354" lon="7.36339">
        <ele>633</ele>
        <time>2021-04-27T13:58:46.000Z</time>
      </trkpt>
      <trkpt lat="48.37357" lon="7.36352">
        <ele>632.4</ele>
        <time>2021-04-27T13:58:53.000Z</time>
      </trkpt>
      <trkpt lat="48.37359" lon="7.36366">
        <ele>631</ele>
        <time>2021-04-27T13:58:59.000Z</time>
      </trkpt>
      <trkpt lat="48.37361" lon="7.3638">
        <ele>630.1</ele>
        <time>2021-04-27T13:59:07.000Z</time>
      </trkpt>
      <trkpt lat="48.37364" lon="7.36393">
        <ele>629.8</ele>
        <time>2021-04-27T13:59:14.000Z</time>
      </trkpt>
      <trkpt lat="48.37367" lon="7.36406">
        <ele>629</ele>
        <time>2021-04-27T13:59:21.000Z</time>
      </trkpt>
      <trkpt lat="48.37373" lon="7.36418">
        <ele>629.8</ele>
        <time>2021-04-27T13:59:29.000Z</time>
      </trkpt>
      <trkpt lat="48.37377" lon="7.36432">
        <ele>628.8</ele>
        <time>2021-04-27T13:59:38.000Z</time>
      </trkpt>
      <trkpt lat="48.37381" lon="7.36444">
        <ele>628.4</ele>
        <time>2021-04-27T13:59:45.000Z</time>
      </trkpt>
      <trkpt lat="48.37384" lon="7.36458">
        <ele>627.5</ele>
        <time>2021-04-27T13:59:51.000Z</time>
      </trkpt>
      <trkpt lat="48.37388" lon="7.36472">
        <ele>626.7</ele>
        <time>2021-04-27T13:59:59.000Z</time>
      </trkpt>
      <trkpt lat="48.37391" lon="7.36485">
        <ele>626.1</ele>
        <time>2021-04-27T14:00:07.000Z</time>
      </trkpt>
      <trkpt lat="48.37396" lon="7.36497">
        <ele>626.2</ele>
        <time>2021-04-27T14:00:14.000Z</time>
      </trkpt>
      <trkpt lat="48.37397" lon="7.36513">
        <ele>624.1</ele>
        <time>2021-04-27T14:00:22.000Z</time>
      </trkpt>
      <trkpt lat="48.37398" lon="7.36528">
        <ele>622.3</ele>
        <time>2021-04-27T14:00:30.000Z</time>
      </trkpt>
      <trkpt lat="48.374" lon="7.36542">
        <ele>620.8</ele>
        <time>2021-04-27T14:00:38.000Z</time>
      </trkpt>
      <trkpt lat="48.37401" lon="7.36557">
        <ele>618.8</ele>
        <time>2021-04-27T14:00:46.000Z</time>
      </trkpt>
      <trkpt lat="48.37402" lon="7.36571">
        <ele>616.9</ele>
        <time>2021-04-27T14:00:55.000Z</time>
      </trkpt>
      <trkpt lat="48.37402" lon="7.36586">
        <ele>614.8</ele>
        <time>2021-04-27T14:01:03.000Z</time>
      </trkpt>
      <trkpt lat="48.37404" lon="7.366">
        <ele>614.6</ele>
        <time>2021-04-27T14:01:10.000Z</time>
      </trkpt>
      <trkpt lat="48.37408" lon="7.36612">
        <ele>616</ele>
        <time>2021-04-27T14:01:17.000Z</time>
      </trkpt>
      <trkpt lat="48.37411" lon="7.36626">
        <ele>616.5</ele>
        <time>2021-04-27T14:01:28.000Z</time>
      </trkpt>
      <trkpt lat="48.37415" lon="7.36639">
        <ele>618</ele>
        <time>2021-04-27T14:01:35.000Z</time>
      </trkpt>
      <trkpt lat="48.37418" lon="7.36652">
        <ele>618.8</ele>
        <time>2021-04-27T14:01:42.000Z</time>
      </trkpt>
      <trkpt lat="48.37418" lon="7.36666">
        <ele>617.8</ele>
        <time>2021-04-27T14:01:50.000Z</time>
      </trkpt>
      <trkpt lat="48.37421" lon="7.36679">
        <ele>617.9</ele>
        <time>2021-04-27T14:01:56.000Z</time>
      </trkpt>
      <trkpt lat="48.37423" lon="7.36693">
        <ele>617.4</ele>
        <time>2021-04-27T14:02:04.000Z</time>
      </trkpt>
      <trkpt lat="48.37425" lon="7.36708">
        <ele>617</ele>
        <time>2021-04-27T14:02:11.000Z</time>
      </trkpt>
      <trkpt lat="48.37424" lon="7.36723">
        <ele>615.3</ele>
        <time>2021-04-27T14:02:20.000Z</time>
      </trkpt>
      <trkpt lat="48.37426" lon="7.36737">
        <ele>615</ele>
        <time>2021-04-27T14:02:27.000Z</time>
      </trkpt>
      <trkpt lat="48.37427" lon="7.36751">
        <ele>614.1</ele>
        <time>2021-04-27T14:02:36.000Z</time>
      </trkpt>
      <trkpt lat="48.3743" lon="7.36764">
        <ele>614.6</ele>
        <time>2021-04-27T14:02:45.000Z</time>
      </trkpt>
      <trkpt lat="48.37432" lon="7.36778">
        <ele>614.7</ele>
        <time>2021-04-27T14:02:52.000Z</time>
      </trkpt>
      <trkpt lat="48.37434" lon="7.36793">
        <ele>614.6</ele>
        <time>2021-04-27T14:03:00.000Z</time>
      </trkpt>
      <trkpt lat="48.37435" lon="7.36808">
        <ele>613.9</ele>
        <time>2021-04-27T14:03:12.000Z</time>
      </trkpt>
      <trkpt lat="48.37438" lon="7.36821">
        <ele>614</ele>
        <time>2021-04-27T14:03:22.000Z</time>
      </trkpt>
      <trkpt lat="48.3744" lon="7.36835">
        <ele>614.1</ele>
        <time>2021-04-27T14:03:31.000Z</time>
      </trkpt>
      <trkpt lat="48.37444" lon="7.36848">
        <ele>616.2</ele>
        <time>2021-04-27T14:03:38.000Z</time>
      </trkpt>
      <trkpt lat="48.37444" lon="7.36861">
        <ele>615.8</ele>
        <time>2021-04-27T14:03:44.000Z</time>
      </trkpt>
      <trkpt lat="48.37444" lon="7.36876">
        <ele>615.6</ele>
        <time>2021-04-27T14:03:52.000Z</time>
      </trkpt>
      <trkpt lat="48.37447" lon="7.36891">
        <ele>616.5</ele>
        <time>2021-04-27T14:03:59.000Z</time>
      </trkpt>
      <trkpt lat="48.3745" lon="7.36905">
        <ele>617.4</ele>
        <time>2021-04-27T14:04:06.000Z</time>
      </trkpt>
      <trkpt lat="48.37451" lon="7.3692">
        <ele>617.7</ele>
        <time>2021-04-27T14:04:15.000Z</time>
      </trkpt>
      <trkpt lat="48.37454" lon="7.36934">
        <ele>618.2</ele>
        <time>2021-04-27T14:04:22.000Z</time>
      </trkpt>
      <trkpt lat="48.37457" lon="7.36948">
        <ele>618.8</ele>
        <time>2021-04-27T14:04:30.000Z</time>
      </trkpt>
      <trkpt lat="48.37458" lon="7.36963">
        <ele>618.6</ele>
        <time>2021-04-27T14:04:36.000Z</time>
      </trkpt>
      <trkpt lat="48.37461" lon="7.36978">
        <ele>619</ele>
        <time>2021-04-27T14:04:45.000Z</time>
      </trkpt>
      <trkpt lat="48.37464" lon="7.36992">
        <ele>619.7</ele>
        <time>2021-04-27T14:04:54.000Z</time>
      </trkpt>
      <trkpt lat="48.37466" lon="7.37007">
        <ele>619.7</ele>
        <time>2021-04-27T14:05:03.000Z</time>
      </trkpt>
      <trkpt lat="48.37468" lon="7.37021">
        <ele>619.3</ele>
        <time>2021-04-27T14:05:10.000Z</time>
      </trkpt>
      <trkpt lat="48.37471" lon="7.37035">
        <ele>619.2</ele>
        <time>2021-04-27T14:05:19.000Z</time>
      </trkpt>
      <trkpt lat="48.37473" lon="7.37049">
        <ele>619.1</ele>
        <time>2021-04-27T14:05:26.000Z</time>
      </trkpt>
      <trkpt lat="48.37476" lon="7.37062">
        <ele>619.1</ele>
        <time>2021-04-27T14:05:32.000Z</time>
      </trkpt>
      <trkpt lat="48.37479" lon="7.37075">
        <ele>619.2</ele>
        <time>2021-04-27T14:05:39.000Z</time>
      </trkpt>
      <trkpt lat="48.37479" lon="7.3709">
        <ele>617.9</ele>
        <time>2021-04-27T14:05:48.000Z</time>
      </trkpt>
      <trkpt lat="48.37482" lon="7.37104">
        <ele>617.1</ele>
        <time>2021-04-27T14:05:55.000Z</time>
      </trkpt>
      <trkpt lat="48.37486" lon="7.37117">
        <ele>616.8</ele>
        <time>2021-04-27T14:06:02.000Z</time>
      </trkpt>
      <trkpt lat="48.37488" lon="7.37132">
        <ele>615.2</ele>
        <time>2021-04-27T14:06:09.000Z</time>
      </trkpt>
      <trkpt lat="48.3749" lon="7.37146">
        <ele>614.1</ele>
        <time>2021-04-27T14:06:17.000Z</time>
      </trkpt>
      <trkpt lat="48.37493" lon="7.37159">
        <ele>613.4</ele>
        <time>2021-04-27T14:06:23.000Z</time>
      </trkpt>
      <trkpt lat="48.37495" lon="7.37173">
        <ele>612.2</ele>
        <time>2021-04-27T14:06:32.000Z</time>
      </trkpt>
      <trkpt lat="48.37497" lon="7.37187">
        <ele>611.6</ele>
        <time>2021-04-27T14:06:39.000Z</time>
      </trkpt>
      <trkpt lat="48.375" lon="7.37201">
        <ele>611.1</ele>
        <time>2021-04-27T14:06:47.000Z</time>
      </trkpt>
      <trkpt lat="48.37503" lon="7.37214">
        <ele>610.3</ele>
        <time>2021-04-27T14:06:55.000Z</time>
      </trkpt>
      <trkpt lat="48.37507" lon="7.37227">
        <ele>610.1</ele>
        <time>2021-04-27T14:07:02.000Z</time>
      </trkpt>
      <trkpt lat="48.37509" lon="7.3724">
        <ele>609.3</ele>
        <time>2021-04-27T14:07:09.000Z</time>
      </trkpt>
      <trkpt lat="48.37509" lon="7.37254">
        <ele>607.5</ele>
        <time>2021-04-27T14:07:16.000Z</time>
      </trkpt>
      <trkpt lat="48.37512" lon="7.37268">
        <ele>605.9</ele>
        <time>2021-04-27T14:07:24.000Z</time>
      </trkpt>
      <trkpt lat="48.37515" lon="7.37283">
        <ele>604.5</ele>
        <time>2021-04-27T14:07:32.000Z</time>
      </trkpt>
      <trkpt lat="48.37518" lon="7.37297">
        <ele>603.3</ele>
        <time>2021-04-27T14:07:40.000Z</time>
      </trkpt>
      <trkpt lat="48.3752" lon="7.37312">
        <ele>601.6</ele>
        <time>2021-04-27T14:07:48.000Z</time>
      </trkpt>
      <trkpt lat="48.37523" lon="7.37326">
        <ele>600.2</ele>
        <time>2021-04-27T14:07:56.000Z</time>
      </trkpt>
      <trkpt lat="48.37527" lon="7.37339">
        <ele>599.2</ele>
        <time>2021-04-27T14:08:04.000Z</time>
      </trkpt>
      <trkpt lat="48.3753" lon="7.37353">
        <ele>598</ele>
        <time>2021-04-27T14:08:11.000Z</time>
      </trkpt>
      <trkpt lat="48.37532" lon="7.37366">
        <ele>596.5</ele>
        <time>2021-04-27T14:08:18.000Z</time>
      </trkpt>
      <trkpt lat="48.37534" lon="7.37381">
        <ele>594.9</ele>
        <time>2021-04-27T14:08:26.000Z</time>
      </trkpt>
      <trkpt lat="48.37537" lon="7.37394">
        <ele>593.4</ele>
        <time>2021-04-27T14:08:33.000Z</time>
      </trkpt>
      <trkpt lat="48.3754" lon="7.37408">
        <ele>591.5</ele>
        <time>2021-04-27T14:08:42.000Z</time>
      </trkpt>
      <trkpt lat="48.37535" lon="7.37421">
        <ele>588.5</ele>
        <time>2021-04-27T14:08:52.000Z</time>
      </trkpt>
      <trkpt lat="48.37526" lon="7.37428">
        <ele>585.5</ele>
        <time>2021-04-27T14:09:00.000Z</time>
      </trkpt>
      <trkpt lat="48.37517" lon="7.37431">
        <ele>583.3</ele>
        <time>2021-04-27T14:09:07.000Z</time>
      </trkpt>
      <trkpt lat="48.37507" lon="7.37434">
        <ele>581</ele>
        <time>2021-04-27T14:09:15.000Z</time>
      </trkpt>
      <trkpt lat="48.37498" lon="7.37439">
        <ele>579.3</ele>
        <time>2021-04-27T14:09:22.000Z</time>
      </trkpt>
      <trkpt lat="48.37493" lon="7.37452">
        <ele>578.6</ele>
        <time>2021-04-27T14:09:30.000Z</time>
      </trkpt>
      <trkpt lat="48.37486" lon="7.37461">
        <ele>577.8</ele>
        <time>2021-04-27T14:09:38.000Z</time>
      </trkpt>
      <trkpt lat="48.37479" lon="7.3747">
        <ele>576.8</ele>
        <time>2021-04-27T14:09:45.000Z</time>
      </trkpt>
      <trkpt lat="48.37473" lon="7.3748">
        <ele>575.9</ele>
        <time>2021-04-27T14:09:53.000Z</time>
      </trkpt>
      <trkpt lat="48.37468" lon="7.37493">
        <ele>574.8</ele>
        <time>2021-04-27T14:10:07.000Z</time>
      </trkpt>
      <trkpt lat="48.37462" lon="7.37504">
        <ele>573.6</ele>
        <time>2021-04-27T14:10:15.000Z</time>
      </trkpt>
      <trkpt lat="48.3746" lon="7.37518">
        <ele>572.6</ele>
        <time>2021-04-27T14:10:22.000Z</time>
      </trkpt>
      <trkpt lat="48.37459" lon="7.37532">
        <ele>571.6</ele>
        <time>2021-04-27T14:10:29.000Z</time>
      </trkpt>
      <trkpt lat="48.37458" lon="7.37546">
        <ele>570.7</ele>
        <time>2021-04-27T14:10:36.000Z</time>
      </trkpt>
      <trkpt lat="48.37457" lon="7.3756">
        <ele>569.8</ele>
        <time>2021-04-27T14:10:44.000Z</time>
      </trkpt>
      <trkpt lat="48.37455" lon="7.37574">
        <ele>568.9</ele>
        <time>2021-04-27T14:10:52.000Z</time>
      </trkpt>
      <trkpt lat="48.37451" lon="7.37589">
        <ele>567.9</ele>
        <time>2021-04-27T14:11:00.000Z</time>
      </trkpt>
      <trkpt lat="48.37447" lon="7.37603">
        <ele>567.1</ele>
        <time>2021-04-27T14:11:07.000Z</time>
      </trkpt>
      <trkpt lat="48.37446" lon="7.37619">
        <ele>566.4</ele>
        <time>2021-04-27T14:11:15.000Z</time>
      </trkpt>
      <trkpt lat="48.37445" lon="7.37632">
        <ele>565.7</ele>
        <time>2021-04-27T14:11:23.000Z</time>
      </trkpt>
      <trkpt lat="48.3744" lon="7.37644">
        <ele>565.1</ele>
        <time>2021-04-27T14:11:31.000Z</time>
      </trkpt>
      <trkpt lat="48.37431" lon="7.37648">
        <ele>564.8</ele>
        <time>2021-04-27T14:11:38.000Z</time>
      </trkpt>
      <trkpt lat="48.37422" lon="7.37653">
        <ele>564.5</ele>
        <time>2021-04-27T14:11:47.000Z</time>
      </trkpt>
      <trkpt lat="48.37412" lon="7.37658">
        <ele>562.6</ele>
        <time>2021-04-27T14:11:53.000Z</time>
      </trkpt>
      <trkpt lat="48.37403" lon="7.37661">
        <ele>559.1</ele>
        <time>2021-04-27T14:11:59.000Z</time>
      </trkpt>
      <trkpt lat="48.37396" lon="7.3767">
        <ele>556.3</ele>
        <time>2021-04-27T14:12:07.000Z</time>
      </trkpt>
      <trkpt lat="48.37387" lon="7.37678">
        <ele>553.4</ele>
        <time>2021-04-27T14:12:14.000Z</time>
      </trkpt>
      <trkpt lat="48.37381" lon="7.37688">
        <ele>551.7</ele>
        <time>2021-04-27T14:12:21.000Z</time>
      </trkpt>
      <trkpt lat="48.37373" lon="7.37696">
        <ele>549.3</ele>
        <time>2021-04-27T14:12:30.000Z</time>
      </trkpt>
      <trkpt lat="48.37367" lon="7.37707">
        <ele>547.8</ele>
        <time>2021-04-27T14:12:38.000Z</time>
      </trkpt>
      <trkpt lat="48.37361" lon="7.37718">
        <ele>546.4</ele>
        <time>2021-04-27T14:12:47.000Z</time>
      </trkpt>
      <trkpt lat="48.37354" lon="7.37728">
        <ele>544.8</ele>
        <time>2021-04-27T14:12:54.000Z</time>
      </trkpt>
      <trkpt lat="48.37346" lon="7.37741">
        <ele>543.3</ele>
        <time>2021-04-27T14:13:02.000Z</time>
      </trkpt>
      <trkpt lat="48.3734" lon="7.37751">
        <ele>542.1</ele>
        <time>2021-04-27T14:13:09.000Z</time>
      </trkpt>
      <trkpt lat="48.37335" lon="7.37764">
        <ele>541.4</ele>
        <time>2021-04-27T14:13:18.000Z</time>
      </trkpt>
      <trkpt lat="48.37329" lon="7.37776">
        <ele>539.7</ele>
        <time>2021-04-27T14:13:27.000Z</time>
      </trkpt>
      <trkpt lat="48.37323" lon="7.37787">
        <ele>537.6</ele>
        <time>2021-04-27T14:13:33.000Z</time>
      </trkpt>
      <trkpt lat="48.37318" lon="7.378">
        <ele>536</ele>
        <time>2021-04-27T14:13:40.000Z</time>
      </trkpt>
      <trkpt lat="48.37315" lon="7.37814">
        <ele>535.2</ele>
        <time>2021-04-27T14:13:48.000Z</time>
      </trkpt>
      <trkpt lat="48.37308" lon="7.37824">
        <ele>532.7</ele>
        <time>2021-04-27T14:14:01.000Z</time>
      </trkpt>
      <trkpt lat="48.37303" lon="7.37837">
        <ele>531</ele>
        <time>2021-04-27T14:14:09.000Z</time>
      </trkpt>
      <trkpt lat="48.37298" lon="7.3785">
        <ele>529</ele>
        <time>2021-04-27T14:14:15.000Z</time>
      </trkpt>
      <trkpt lat="48.37294" lon="7.37862">
        <ele>527.8</ele>
        <time>2021-04-27T14:14:23.000Z</time>
      </trkpt>
      <trkpt lat="48.37289" lon="7.37874">
        <ele>526.3</ele>
        <time>2021-04-27T14:14:29.000Z</time>
      </trkpt>
      <trkpt lat="48.37284" lon="7.37886">
        <ele>524.8</ele>
        <time>2021-04-27T14:14:37.000Z</time>
      </trkpt>
      <trkpt lat="48.3728" lon="7.379">
        <ele>524</ele>
        <time>2021-04-27T14:14:46.000Z</time>
      </trkpt>
      <trkpt lat="48.37277" lon="7.37914">
        <ele>523.5</ele>
        <time>2021-04-27T14:14:57.000Z</time>
      </trkpt>
      <trkpt lat="48.37273" lon="7.37927">
        <ele>523.4</ele>
        <time>2021-04-27T14:15:04.000Z</time>
      </trkpt>
      <trkpt lat="48.37269" lon="7.37941">
        <ele>522.6</ele>
        <time>2021-04-27T14:15:12.000Z</time>
      </trkpt>
      <trkpt lat="48.37262" lon="7.37952">
        <ele>520.8</ele>
        <time>2021-04-27T14:15:21.000Z</time>
      </trkpt>
      <trkpt lat="48.37256" lon="7.37964">
        <ele>519.7</ele>
        <time>2021-04-27T14:15:29.000Z</time>
      </trkpt>
      <trkpt lat="48.37252" lon="7.37976">
        <ele>519.1</ele>
        <time>2021-04-27T14:15:37.000Z</time>
      </trkpt>
      <trkpt lat="48.37246" lon="7.37987">
        <ele>517.4</ele>
        <time>2021-04-27T14:15:47.000Z</time>
      </trkpt>
      <trkpt lat="48.37242" lon="7.38001">
        <ele>517.1</ele>
        <time>2021-04-27T14:15:54.000Z</time>
      </trkpt>
      <trkpt lat="48.37238" lon="7.38013">
        <ele>516.1</ele>
        <time>2021-04-27T14:16:02.000Z</time>
      </trkpt>
      <trkpt lat="48.37233" lon="7.38025">
        <ele>515.1</ele>
        <time>2021-04-27T14:16:10.000Z</time>
      </trkpt>
      <trkpt lat="48.37228" lon="7.38037">
        <ele>514</ele>
        <time>2021-04-27T14:16:17.000Z</time>
      </trkpt>
      <trkpt lat="48.37225" lon="7.38052">
        <ele>514.1</ele>
        <time>2021-04-27T14:16:25.000Z</time>
      </trkpt>
      <trkpt lat="48.3722" lon="7.38065">
        <ele>513.1</ele>
        <time>2021-04-27T14:16:32.000Z</time>
      </trkpt>
      <trkpt lat="48.37215" lon="7.38076">
        <ele>512.1</ele>
        <time>2021-04-27T14:16:45.000Z</time>
      </trkpt>
      <trkpt lat="48.37212" lon="7.3809">
        <ele>511.7</ele>
        <time>2021-04-27T14:16:54.000Z</time>
      </trkpt>
      <trkpt lat="48.37208" lon="7.38102">
        <ele>510.6</ele>
        <time>2021-04-27T14:17:03.000Z</time>
      </trkpt>
      <trkpt lat="48.37203" lon="7.38114">
        <ele>509.3</ele>
        <time>2021-04-27T14:17:12.000Z</time>
      </trkpt>
      <trkpt lat="48.37197" lon="7.38126">
        <ele>507.6</ele>
        <time>2021-04-27T14:17:23.000Z</time>
      </trkpt>
      <trkpt lat="48.37191" lon="7.38138">
        <ele>505.7</ele>
        <time>2021-04-27T14:17:32.000Z</time>
      </trkpt>
      <trkpt lat="48.37188" lon="7.38151">
        <ele>504.9</ele>
        <time>2021-04-27T14:17:42.000Z</time>
      </trkpt>
      <trkpt lat="48.37184" lon="7.38165">
        <ele>504</ele>
        <time>2021-04-27T14:17:50.000Z</time>
      </trkpt>
      <trkpt lat="48.37191" lon="7.3818">
        <ele>507.6</ele>
        <time>2021-04-27T14:18:23.000Z</time>
      </trkpt>
      <trkpt lat="48.37182" lon="7.38185">
        <ele>503.9</ele>
        <time>2021-04-27T14:18:52.000Z</time>
      </trkpt>
      <trkpt lat="48.37176" lon="7.38195">
        <ele>501.7</ele>
        <time>2021-04-27T14:18:59.000Z</time>
      </trkpt>
      <trkpt lat="48.3717" lon="7.38206">
        <ele>499.5</ele>
        <time>2021-04-27T14:19:06.000Z</time>
      </trkpt>
      <trkpt lat="48.37162" lon="7.38213">
        <ele>496.5</ele>
        <time>2021-04-27T14:19:15.000Z</time>
      </trkpt>
      <trkpt lat="48.37157" lon="7.38201">
        <ele>494.2</ele>
        <time>2021-04-27T14:19:31.000Z</time>
      </trkpt>
      <trkpt lat="48.37155" lon="7.38188">
        <ele>492.8</ele>
        <time>2021-04-27T14:19:43.000Z</time>
      </trkpt>
      <trkpt lat="48.37152" lon="7.38174">
        <ele>491.4</ele>
        <time>2021-04-27T14:19:52.000Z</time>
      </trkpt>
      <trkpt lat="48.37148" lon="7.38161">
        <ele>488.9</ele>
        <time>2021-04-27T14:20:02.000Z</time>
      </trkpt>
      <trkpt lat="48.37144" lon="7.38148">
        <ele>486.2</ele>
        <time>2021-04-27T14:20:11.000Z</time>
      </trkpt>
      <trkpt lat="48.37142" lon="7.38135">
        <ele>484</ele>
        <time>2021-04-27T14:20:18.000Z</time>
      </trkpt>
      <trkpt lat="48.37142" lon="7.38121">
        <ele>483</ele>
        <time>2021-04-27T14:20:26.000Z</time>
      </trkpt>
      <trkpt lat="48.37141" lon="7.38106">
        <ele>481.3</ele>
        <time>2021-04-27T14:20:35.000Z</time>
      </trkpt>
      <trkpt lat="48.37143" lon="7.38092">
        <ele>481.1</ele>
        <time>2021-04-27T14:20:43.000Z</time>
      </trkpt>
      <trkpt lat="48.37144" lon="7.38078">
        <ele>480.3</ele>
        <time>2021-04-27T14:20:51.000Z</time>
      </trkpt>
      <trkpt lat="48.37142" lon="7.38063">
        <ele>477.3</ele>
        <time>2021-04-27T14:20:59.000Z</time>
      </trkpt>
      <trkpt lat="48.37142" lon="7.38048">
        <ele>475.5</ele>
        <time>2021-04-27T14:21:07.000Z</time>
      </trkpt>
      <trkpt lat="48.37143" lon="7.38034">
        <ele>474.1</ele>
        <time>2021-04-27T14:21:15.000Z</time>
      </trkpt>
      <trkpt lat="48.37145" lon="7.3802">
        <ele>473</ele>
        <time>2021-04-27T14:21:22.000Z</time>
      </trkpt>
      <trkpt lat="48.37147" lon="7.38006">
        <ele>472.5</ele>
        <time>2021-04-27T14:21:30.000Z</time>
      </trkpt>
      <trkpt lat="48.37151" lon="7.37992">
        <ele>472.1</ele>
        <time>2021-04-27T14:21:40.000Z</time>
      </trkpt>
      <trkpt lat="48.37153" lon="7.37978">
        <ele>470.9</ele>
        <time>2021-04-27T14:21:48.000Z</time>
      </trkpt>
      <trkpt lat="48.37156" lon="7.37964">
        <ele>469.6</ele>
        <time>2021-04-27T14:21:58.000Z</time>
      </trkpt>
      <trkpt lat="48.37157" lon="7.3795">
        <ele>468</ele>
        <time>2021-04-27T14:22:08.000Z</time>
      </trkpt>
      <trkpt lat="48.37159" lon="7.37935">
        <ele>466.2</ele>
        <time>2021-04-27T14:22:17.000Z</time>
      </trkpt>
      <trkpt lat="48.37159" lon="7.3792">
        <ele>464</ele>
        <time>2021-04-27T14:22:24.000Z</time>
      </trkpt>
      <trkpt lat="48.37157" lon="7.37906">
        <ele>461.3</ele>
        <time>2021-04-27T14:22:30.000Z</time>
      </trkpt>
      <trkpt lat="48.37159" lon="7.37892">
        <ele>460.5</ele>
        <time>2021-04-27T14:22:46.000Z</time>
      </trkpt>
      <trkpt lat="48.37161" lon="7.37878">
        <ele>460.1</ele>
        <time>2021-04-27T14:22:54.000Z</time>
      </trkpt>
      <trkpt lat="48.37162" lon="7.37863">
        <ele>458.7</ele>
        <time>2021-04-27T14:23:01.000Z</time>
      </trkpt>
      <trkpt lat="48.37162" lon="7.37849">
        <ele>457.3</ele>
        <time>2021-04-27T14:23:07.000Z</time>
      </trkpt>
      <trkpt lat="48.37164" lon="7.37835">
        <ele>456.9</ele>
        <time>2021-04-27T14:23:14.000Z</time>
      </trkpt>
      <trkpt lat="48.37165" lon="7.37818">
        <ele>456.2</ele>
        <time>2021-04-27T14:23:21.000Z</time>
      </trkpt>
      <trkpt lat="48.37165" lon="7.37803">
        <ele>454.9</ele>
        <time>2021-04-27T14:23:26.000Z</time>
      </trkpt>
      <trkpt lat="48.37166" lon="7.37789">
        <ele>454.5</ele>
        <time>2021-04-27T14:23:32.000Z</time>
      </trkpt>
      <trkpt lat="48.37169" lon="7.37775">
        <ele>455</ele>
        <time>2021-04-27T14:23:40.000Z</time>
      </trkpt>
      <trkpt lat="48.37171" lon="7.37762">
        <ele>455.3</ele>
        <time>2021-04-27T14:23:48.000Z</time>
      </trkpt>
      <trkpt lat="48.37173" lon="7.37747">
        <ele>455.2</ele>
        <time>2021-04-27T14:23:56.000Z</time>
      </trkpt>
      <trkpt lat="48.37174" lon="7.37732">
        <ele>454.5</ele>
        <time>2021-04-27T14:24:03.000Z</time>
      </trkpt>
      <trkpt lat="48.37167" lon="7.37723">
        <ele>450.4</ele>
        <time>2021-04-27T14:24:11.000Z</time>
      </trkpt>
      <trkpt lat="48.37159" lon="7.3773">
        <ele>447.1</ele>
        <time>2021-04-27T14:24:20.000Z</time>
      </trkpt>
      <trkpt lat="48.37152" lon="7.37738">
        <ele>444</ele>
        <time>2021-04-27T14:24:26.000Z</time>
      </trkpt>
      <trkpt lat="48.37145" lon="7.37747">
        <ele>441.1</ele>
        <time>2021-04-27T14:24:34.000Z</time>
      </trkpt>
      <trkpt lat="48.37138" lon="7.37755">
        <ele>438</ele>
        <time>2021-04-27T14:24:45.000Z</time>
      </trkpt>
      <trkpt lat="48.37131" lon="7.37767">
        <ele>435.6</ele>
        <time>2021-04-27T14:24:54.000Z</time>
      </trkpt>
      <trkpt lat="48.37128" lon="7.3778">
        <ele>434.6</ele>
        <time>2021-04-27T14:25:04.000Z</time>
      </trkpt>
      <trkpt lat="48.37125" lon="7.37794">
        <ele>433.6</ele>
        <time>2021-04-27T14:25:12.000Z</time>
      </trkpt>
      <trkpt lat="48.37118" lon="7.37804">
        <ele>430.6</ele>
        <time>2021-04-27T14:25:19.000Z</time>
      </trkpt>
      <trkpt lat="48.37111" lon="7.37814">
        <ele>427.8</ele>
        <time>2021-04-27T14:25:26.000Z</time>
      </trkpt>
      <trkpt lat="48.37104" lon="7.37823">
        <ele>424.4</ele>
        <time>2021-04-27T14:25:33.000Z</time>
      </trkpt>
      <trkpt lat="48.371" lon="7.37836">
        <ele>423.1</ele>
        <time>2021-04-27T14:25:42.000Z</time>
      </trkpt>
      <trkpt lat="48.37095" lon="7.37849">
        <ele>422.4</ele>
        <time>2021-04-27T14:25:49.000Z</time>
      </trkpt>
      <trkpt lat="48.37092" lon="7.37861">
        <ele>422.6</ele>
        <time>2021-04-27T14:25:55.000Z</time>
      </trkpt>
      <trkpt lat="48.37088" lon="7.37875">
        <ele>423</ele>
        <time>2021-04-27T14:26:02.000Z</time>
      </trkpt>
      <trkpt lat="48.37084" lon="7.3789">
        <ele>423.3</ele>
        <time>2021-04-27T14:26:18.000Z</time>
      </trkpt>
      <trkpt lat="48.37078" lon="7.37901">
        <ele>422.4</ele>
        <time>2021-04-27T14:26:26.000Z</time>
      </trkpt>
      <trkpt lat="48.37071" lon="7.37912">
        <ele>420.4</ele>
        <time>2021-04-27T14:26:36.000Z</time>
      </trkpt>
      <trkpt lat="48.37065" lon="7.37923">
        <ele>419.1</ele>
        <time>2021-04-27T14:26:44.000Z</time>
      </trkpt>
      <trkpt lat="48.3706" lon="7.37934">
        <ele>418.6</ele>
        <time>2021-04-27T14:26:54.000Z</time>
      </trkpt>
      <trkpt lat="48.37053" lon="7.37944">
        <ele>416.9</ele>
        <time>2021-04-27T14:27:04.000Z</time>
      </trkpt>
      <trkpt lat="48.37048" lon="7.37958">
        <ele>416.5</ele>
        <time>2021-04-27T14:27:12.000Z</time>
      </trkpt>
      <trkpt lat="48.37043" lon="7.37969">
        <ele>415.4</ele>
        <time>2021-04-27T14:27:19.000Z</time>
      </trkpt>
      <trkpt lat="48.37035" lon="7.37976">
        <ele>412.6</ele>
        <time>2021-04-27T14:27:27.000Z</time>
      </trkpt>
      <trkpt lat="48.37027" lon="7.37983">
        <ele>409.5</ele>
        <time>2021-04-27T14:27:37.000Z</time>
      </trkpt>
      <trkpt lat="48.37021" lon="7.37994">
        <ele>407.7</ele>
        <time>2021-04-27T14:27:45.000Z</time>
      </trkpt>
      <trkpt lat="48.37013" lon="7.38002">
        <ele>405</ele>
        <time>2021-04-27T14:27:52.000Z</time>
      </trkpt>
      <trkpt lat="48.37005" lon="7.38012">
        <ele>402.4</ele>
        <time>2021-04-27T14:28:00.000Z</time>
      </trkpt>
      <trkpt lat="48.36996" lon="7.38018">
        <ele>399.3</ele>
        <time>2021-04-27T14:28:09.000Z</time>
      </trkpt>
      <trkpt lat="48.36988" lon="7.38026">
        <ele>397.3</ele>
        <time>2021-04-27T14:28:18.000Z</time>
      </trkpt>
      <trkpt lat="48.3698" lon="7.38034">
        <ele>395.1</ele>
        <time>2021-04-27T14:28:26.000Z</time>
      </trkpt>
      <trkpt lat="48.36972" lon="7.38043">
        <ele>393.2</ele>
        <time>2021-04-27T14:28:34.000Z</time>
      </trkpt>
      <trkpt lat="48.36964" lon="7.38053">
        <ele>391.5</ele>
        <time>2021-04-27T14:28:43.000Z</time>
      </trkpt>
      <trkpt lat="48.36957" lon="7.38062">
        <ele>389.8</ele>
        <time>2021-04-27T14:28:51.000Z</time>
      </trkpt>
      <trkpt lat="48.3695" lon="7.3807">
        <ele>387.7</ele>
        <time>2021-04-27T14:28:59.000Z</time>
      </trkpt>
      <trkpt lat="48.36941" lon="7.38077">
        <ele>384.7</ele>
        <time>2021-04-27T14:29:07.000Z</time>
      </trkpt>
      <trkpt lat="48.36933" lon="7.38085">
        <ele>382.1</ele>
        <time>2021-04-27T14:29:15.000Z</time>
      </trkpt>
      <trkpt lat="48.36927" lon="7.38096">
        <ele>381.9</ele>
        <time>2021-04-27T14:29:27.000Z</time>
      </trkpt>
      <trkpt lat="48.36919" lon="7.38104">
        <ele>379.9</ele>
        <time>2021-04-27T14:29:39.000Z</time>
      </trkpt>
      <trkpt lat="48.36912" lon="7.38113">
        <ele>379.1</ele>
        <time>2021-04-27T14:29:47.000Z</time>
      </trkpt>
      <trkpt lat="48.36906" lon="7.38125">
        <ele>379.7</ele>
        <time>2021-04-27T14:29:54.000Z</time>
      </trkpt>
      <trkpt lat="48.36899" lon="7.38132">
        <ele>378.7</ele>
        <time>2021-04-27T14:30:02.000Z</time>
      </trkpt>
      <trkpt lat="48.3689" lon="7.3814">
        <ele>377</ele>
        <time>2021-04-27T14:30:08.000Z</time>
      </trkpt>
      <trkpt lat="48.36885" lon="7.38152">
        <ele>376.9</ele>
        <time>2021-04-27T14:30:15.000Z</time>
      </trkpt>
      <trkpt lat="48.36879" lon="7.38164">
        <ele>376</ele>
        <time>2021-04-27T14:30:23.000Z</time>
      </trkpt>
      <trkpt lat="48.3687" lon="7.38174">
        <ele>373.8</ele>
        <time>2021-04-27T14:30:32.000Z</time>
      </trkpt>
      <trkpt lat="48.36864" lon="7.38185">
        <ele>372</ele>
        <time>2021-04-27T14:30:39.000Z</time>
      </trkpt>
      <trkpt lat="48.3686" lon="7.38198">
        <ele>371.4</ele>
        <time>2021-04-27T14:30:47.000Z</time>
      </trkpt>
      <trkpt lat="48.36857" lon="7.38212">
        <ele>371.4</ele>
        <time>2021-04-27T14:30:59.000Z</time>
      </trkpt>
      <trkpt lat="48.3685" lon="7.38222">
        <ele>369.2</ele>
        <time>2021-04-27T14:31:08.000Z</time>
      </trkpt>
      <trkpt lat="48.36846" lon="7.38235">
        <ele>368.1</ele>
        <time>2021-04-27T14:31:15.000Z</time>
      </trkpt>
      <trkpt lat="48.36843" lon="7.38248">
        <ele>367.7</ele>
        <time>2021-04-27T14:31:24.000Z</time>
      </trkpt>
      <trkpt lat="48.36839" lon="7.38262">
        <ele>366.1</ele>
        <time>2021-04-27T14:31:34.000Z</time>
      </trkpt>
      <trkpt lat="48.36838" lon="7.38278">
        <ele>365.1</ele>
        <time>2021-04-27T14:31:41.000Z</time>
      </trkpt>
      <trkpt lat="48.36837" lon="7.38292">
        <ele>364.4</ele>
        <time>2021-04-27T14:31:49.000Z</time>
      </trkpt>
      <trkpt lat="48.36836" lon="7.38307">
        <ele>363.7</ele>
        <time>2021-04-27T14:31:57.000Z</time>
      </trkpt>
      <trkpt lat="48.36835" lon="7.38322">
        <ele>362.9</ele>
        <time>2021-04-27T14:32:06.000Z</time>
      </trkpt>
      <trkpt lat="48.36834" lon="7.38336">
        <ele>362.1</ele>
        <time>2021-04-27T14:32:12.000Z</time>
      </trkpt>
      <trkpt lat="48.36831" lon="7.38351">
        <ele>361.1</ele>
        <time>2021-04-27T14:32:22.000Z</time>
      </trkpt>
      <trkpt lat="48.36827" lon="7.38366">
        <ele>359.6</ele>
        <time>2021-04-27T14:32:29.000Z</time>
      </trkpt>
      <trkpt lat="48.36818" lon="7.3836">
        <ele>357.8</ele>
        <time>2021-04-27T14:32:47.000Z</time>
      </trkpt>
      <trkpt lat="48.36809" lon="7.38355">
        <ele>355.8</ele>
        <time>2021-04-27T14:32:54.000Z</time>
      </trkpt>
      <trkpt lat="48.36802" lon="7.38345">
        <ele>354.5</ele>
        <time>2021-04-27T14:33:03.000Z</time>
      </trkpt>
      <trkpt lat="48.36796" lon="7.38335">
        <ele>353.4</ele>
        <time>2021-04-27T14:33:13.000Z</time>
      </trkpt>
      <trkpt lat="48.3679" lon="7.38324">
        <ele>352.2</ele>
        <time>2021-04-27T14:33:22.000Z</time>
      </trkpt>
      <trkpt lat="48.36782" lon="7.38316">
        <ele>350.1</ele>
        <time>2021-04-27T14:33:31.000Z</time>
      </trkpt>
      <trkpt lat="48.36772" lon="7.38314">
        <ele>347.9</ele>
        <time>2021-04-27T14:33:38.000Z</time>
      </trkpt>
      <trkpt lat="48.36763" lon="7.38311">
        <ele>345.6</ele>
        <time>2021-04-27T14:33:47.000Z</time>
      </trkpt>
      <trkpt lat="48.36754" lon="7.38308">
        <ele>343.3</ele>
        <time>2021-04-27T14:33:57.000Z</time>
      </trkpt>
      <trkpt lat="48.36745" lon="7.38304">
        <ele>342</ele>
        <time>2021-04-27T14:34:05.000Z</time>
      </trkpt>
      <trkpt lat="48.36736" lon="7.38303">
        <ele>341.4</ele>
        <time>2021-04-27T14:34:14.000Z</time>
      </trkpt>
      <trkpt lat="48.3673" lon="7.38314">
        <ele>341.2</ele>
        <time>2021-04-27T14:34:22.000Z</time>
      </trkpt>
      <trkpt lat="48.36724" lon="7.38326">
        <ele>340.8</ele>
        <time>2021-04-27T14:34:29.000Z</time>
      </trkpt>
      <trkpt lat="48.36726" lon="7.3834">
        <ele>340.6</ele>
        <time>2021-04-27T14:34:36.000Z</time>
      </trkpt>
      <trkpt lat="48.36729" lon="7.38354">
        <ele>340.2</ele>
        <time>2021-04-27T14:34:44.000Z</time>
      </trkpt>
      <trkpt lat="48.36738" lon="7.38363">
        <ele>340.5</ele>
        <time>2021-04-27T14:34:52.000Z</time>
      </trkpt>
      <trkpt lat="48.36747" lon="7.38358">
        <ele>341.5</ele>
        <time>2021-04-27T14:35:01.000Z</time>
      </trkpt>
      <trkpt lat="48.36749" lon="7.38355">
        <ele>341.8</ele>
        <time>2021-04-27T14:35:20.000Z</time>
      </trkpt>
    </trkseg>
  </trk>
</gpx>